<?xml version="1.0" encoding="UTF-8" standalone="no" ?>
<gpx xmlns="http://www.topografix.com/GPX/1/1" xmlns:xsi="http://www.w3.org/2001/XMLSchema-instance" xsi:schemaLocation="http://www.topografix.com/GPX/1/1 http://www.topografix.com/GPX/1/1/gpx.xsd" version="1.1" creator="VisuGPX - https://www.visugpx.com">
  <metadata>
    <name>RSPFY-Limours</name>
    <desc><![CDATA[Boucle de marche nordique au départ du parking de l'école des Cendrières à Limours.]]></desc>
  </metadata>
  <trk>
    <name><![CDATA[2025-01-21 09:01]]></name>
    <desc><![CDATA[<p>Heure de départ: 09:01 21 janv. 2025<br/>Heure d'arrivée: 11:40 21 janv. 2025<br/>Distance: 11,1 km (02:38)<br/>Temps déplacement: 02:06<br/>Vitesse moyenne: 4,21 km/h<br/>Vitesse moyenne mouv.: 5,29 km/h<br/>Vitesse Max.: 6,75 km/h<br/>Altitude minimale: 104 m<br/>Altitude maximale: 168 m<br/>Vitesse de montée: 146,1 m/h<br/>Vitesse de descente: -128,4 m/h<br/>Gain d'altitude: 174 m<br/>Perte d'altitude: -180 m<br/>Temps de montée: 01:11<br/>Temps de descente: 01:24<br/></p><hr align="center" width="480" style="height: 2px; width: 517px"/>]]></desc>
    <trkseg>
      <trkpt lat="48.64168" lon="2.07087">
        <ele>166</ele>
        <time>2025-01-21T08:01:58Z</time>
      </trkpt>
      <trkpt lat="48.64174" lon="2.07098">
        <ele>165.9</ele>
        <time>2025-01-21T08:05:26Z</time>
      </trkpt>
      <trkpt lat="48.64173" lon="2.07112">
        <ele>165.8</ele>
        <time>2025-01-21T08:05:36Z</time>
      </trkpt>
      <trkpt lat="48.64175" lon="2.07126">
        <ele>165.7</ele>
        <time>2025-01-21T08:05:45Z</time>
      </trkpt>
      <trkpt lat="48.64175" lon="2.0714">
        <ele>165.7</ele>
        <time>2025-01-21T08:05:52Z</time>
      </trkpt>
      <trkpt lat="48.64173" lon="2.07154">
        <ele>165.2</ele>
        <time>2025-01-21T08:06:00Z</time>
      </trkpt>
      <trkpt lat="48.64169" lon="2.07168">
        <ele>164.9</ele>
        <time>2025-01-21T08:06:08Z</time>
      </trkpt>
      <trkpt lat="48.64165" lon="2.07181">
        <ele>165.1</ele>
        <time>2025-01-21T08:06:16Z</time>
      </trkpt>
      <trkpt lat="48.6416" lon="2.07194">
        <ele>165.2</ele>
        <time>2025-01-21T08:06:24Z</time>
      </trkpt>
      <trkpt lat="48.64156" lon="2.07206">
        <ele>165.1</ele>
        <time>2025-01-21T08:06:32Z</time>
      </trkpt>
      <trkpt lat="48.64152" lon="2.0722">
        <ele>165.1</ele>
        <time>2025-01-21T08:06:40Z</time>
      </trkpt>
      <trkpt lat="48.64147" lon="2.07233">
        <ele>165.1</ele>
        <time>2025-01-21T08:06:48Z</time>
      </trkpt>
      <trkpt lat="48.64143" lon="2.07247">
        <ele>165</ele>
        <time>2025-01-21T08:06:56Z</time>
      </trkpt>
      <trkpt lat="48.64138" lon="2.0726">
        <ele>165</ele>
        <time>2025-01-21T08:07:04Z</time>
      </trkpt>
      <trkpt lat="48.64134" lon="2.07274">
        <ele>165.2</ele>
        <time>2025-01-21T08:07:12Z</time>
      </trkpt>
      <trkpt lat="48.6413" lon="2.07287">
        <ele>165.3</ele>
        <time>2025-01-21T08:07:19Z</time>
      </trkpt>
      <trkpt lat="48.64125" lon="2.07299">
        <ele>165.5</ele>
        <time>2025-01-21T08:07:26Z</time>
      </trkpt>
      <trkpt lat="48.64121" lon="2.07312">
        <ele>165.4</ele>
        <time>2025-01-21T08:07:33Z</time>
      </trkpt>
      <trkpt lat="48.64117" lon="2.07325">
        <ele>165.1</ele>
        <time>2025-01-21T08:07:40Z</time>
      </trkpt>
      <trkpt lat="48.64113" lon="2.07338">
        <ele>164.9</ele>
        <time>2025-01-21T08:07:47Z</time>
      </trkpt>
      <trkpt lat="48.64108" lon="2.0735">
        <ele>165.1</ele>
        <time>2025-01-21T08:07:54Z</time>
      </trkpt>
      <trkpt lat="48.64099" lon="2.07352">
        <ele>165.4</ele>
        <time>2025-01-21T08:08:00Z</time>
      </trkpt>
      <trkpt lat="48.64091" lon="2.07346">
        <ele>165.7</ele>
        <time>2025-01-21T08:08:06Z</time>
      </trkpt>
      <trkpt lat="48.64082" lon="2.07341">
        <ele>166.1</ele>
        <time>2025-01-21T08:08:13Z</time>
      </trkpt>
      <trkpt lat="48.64072" lon="2.07334">
        <ele>166.4</ele>
        <time>2025-01-21T08:08:21Z</time>
      </trkpt>
      <trkpt lat="48.64064" lon="2.07329">
        <ele>166.7</ele>
        <time>2025-01-21T08:08:28Z</time>
      </trkpt>
      <trkpt lat="48.64056" lon="2.07322">
        <ele>167</ele>
        <time>2025-01-21T08:08:35Z</time>
      </trkpt>
      <trkpt lat="48.64047" lon="2.07316">
        <ele>167.3</ele>
        <time>2025-01-21T08:08:42Z</time>
      </trkpt>
      <trkpt lat="48.64039" lon="2.0731">
        <ele>167.6</ele>
        <time>2025-01-21T08:08:49Z</time>
      </trkpt>
      <trkpt lat="48.6403" lon="2.07304">
        <ele>167.9</ele>
        <time>2025-01-21T08:08:56Z</time>
      </trkpt>
      <trkpt lat="48.64021" lon="2.073">
        <ele>168</ele>
        <time>2025-01-21T08:09:03Z</time>
      </trkpt>
      <trkpt lat="48.64012" lon="2.07293">
        <ele>168.2</ele>
        <time>2025-01-21T08:09:10Z</time>
      </trkpt>
      <trkpt lat="48.64003" lon="2.07289">
        <ele>168.5</ele>
        <time>2025-01-21T08:09:17Z</time>
      </trkpt>
      <trkpt lat="48.63995" lon="2.07282">
        <ele>168.9</ele>
        <time>2025-01-21T08:09:24Z</time>
      </trkpt>
      <trkpt lat="48.63986" lon="2.07276">
        <ele>169</ele>
        <time>2025-01-21T08:09:31Z</time>
      </trkpt>
      <trkpt lat="48.63977" lon="2.07269">
        <ele>169.3</ele>
        <time>2025-01-21T08:09:38Z</time>
      </trkpt>
      <trkpt lat="48.63969" lon="2.07262">
        <ele>169.6</ele>
        <time>2025-01-21T08:09:45Z</time>
      </trkpt>
      <trkpt lat="48.63961" lon="2.07256">
        <ele>169.9</ele>
        <time>2025-01-21T08:09:52Z</time>
      </trkpt>
      <trkpt lat="48.63952" lon="2.07249">
        <ele>170</ele>
        <time>2025-01-21T08:09:59Z</time>
      </trkpt>
      <trkpt lat="48.63944" lon="2.07242">
        <ele>170</ele>
        <time>2025-01-21T08:10:06Z</time>
      </trkpt>
      <trkpt lat="48.63935" lon="2.07236">
        <ele>170.3</ele>
        <time>2025-01-21T08:10:13Z</time>
      </trkpt>
      <trkpt lat="48.63925" lon="2.07229">
        <ele>170.7</ele>
        <time>2025-01-21T08:10:20Z</time>
      </trkpt>
      <trkpt lat="48.63916" lon="2.0722">
        <ele>171</ele>
        <time>2025-01-21T08:10:27Z</time>
      </trkpt>
      <trkpt lat="48.63908" lon="2.07214">
        <ele>171</ele>
        <time>2025-01-21T08:10:34Z</time>
      </trkpt>
      <trkpt lat="48.639" lon="2.07208">
        <ele>171</ele>
        <time>2025-01-21T08:10:41Z</time>
      </trkpt>
      <trkpt lat="48.63892" lon="2.07198">
        <ele>171</ele>
        <time>2025-01-21T08:10:49Z</time>
      </trkpt>
      <trkpt lat="48.63884" lon="2.07192">
        <ele>171</ele>
        <time>2025-01-21T08:10:56Z</time>
      </trkpt>
      <trkpt lat="48.63875" lon="2.07184">
        <ele>171</ele>
        <time>2025-01-21T08:11:03Z</time>
      </trkpt>
      <trkpt lat="48.63866" lon="2.07177">
        <ele>171</ele>
        <time>2025-01-21T08:11:10Z</time>
      </trkpt>
      <trkpt lat="48.63857" lon="2.0717">
        <ele>171.1</ele>
        <time>2025-01-21T08:11:17Z</time>
      </trkpt>
      <trkpt lat="48.63849" lon="2.07165">
        <ele>171.5</ele>
        <time>2025-01-21T08:11:25Z</time>
      </trkpt>
      <trkpt lat="48.6384" lon="2.07162">
        <ele>171.8</ele>
        <time>2025-01-21T08:11:35Z</time>
      </trkpt>
      <trkpt lat="48.63832" lon="2.07155">
        <ele>171.9</ele>
        <time>2025-01-21T08:11:42Z</time>
      </trkpt>
      <trkpt lat="48.63825" lon="2.07147">
        <ele>171.7</ele>
        <time>2025-01-21T08:11:49Z</time>
      </trkpt>
      <trkpt lat="48.63817" lon="2.07138">
        <ele>171.4</ele>
        <time>2025-01-21T08:11:57Z</time>
      </trkpt>
      <trkpt lat="48.63808" lon="2.07131">
        <ele>171.3</ele>
        <time>2025-01-21T08:12:05Z</time>
      </trkpt>
      <trkpt lat="48.63799" lon="2.07124">
        <ele>171.5</ele>
        <time>2025-01-21T08:12:14Z</time>
      </trkpt>
      <trkpt lat="48.63791" lon="2.07117">
        <ele>171.8</ele>
        <time>2025-01-21T08:12:22Z</time>
      </trkpt>
      <trkpt lat="48.63783" lon="2.0711">
        <ele>172</ele>
        <time>2025-01-21T08:12:29Z</time>
      </trkpt>
      <trkpt lat="48.63774" lon="2.07103">
        <ele>171.9</ele>
        <time>2025-01-21T08:12:43Z</time>
      </trkpt>
      <trkpt lat="48.63766" lon="2.07096">
        <ele>171.8</ele>
        <time>2025-01-21T08:12:50Z</time>
      </trkpt>
      <trkpt lat="48.63757" lon="2.07089">
        <ele>171.9</ele>
        <time>2025-01-21T08:12:57Z</time>
      </trkpt>
      <trkpt lat="48.63749" lon="2.07083">
        <ele>172</ele>
        <time>2025-01-21T08:13:03Z</time>
      </trkpt>
      <trkpt lat="48.63741" lon="2.07074">
        <ele>171.5</ele>
        <time>2025-01-21T08:13:10Z</time>
      </trkpt>
      <trkpt lat="48.63733" lon="2.07068">
        <ele>171.2</ele>
        <time>2025-01-21T08:13:17Z</time>
      </trkpt>
      <trkpt lat="48.63724" lon="2.07061">
        <ele>171</ele>
        <time>2025-01-21T08:13:24Z</time>
      </trkpt>
      <trkpt lat="48.63716" lon="2.07054">
        <ele>171</ele>
        <time>2025-01-21T08:13:32Z</time>
      </trkpt>
      <trkpt lat="48.63708" lon="2.07047">
        <ele>171</ele>
        <time>2025-01-21T08:13:39Z</time>
      </trkpt>
      <trkpt lat="48.637" lon="2.0704">
        <ele>171</ele>
        <time>2025-01-21T08:13:46Z</time>
      </trkpt>
      <trkpt lat="48.63692" lon="2.07033">
        <ele>171</ele>
        <time>2025-01-21T08:13:53Z</time>
      </trkpt>
      <trkpt lat="48.63684" lon="2.07026">
        <ele>171</ele>
        <time>2025-01-21T08:14:00Z</time>
      </trkpt>
      <trkpt lat="48.63675" lon="2.07019">
        <ele>171</ele>
        <time>2025-01-21T08:14:07Z</time>
      </trkpt>
      <trkpt lat="48.63667" lon="2.07012">
        <ele>171</ele>
        <time>2025-01-21T08:14:14Z</time>
      </trkpt>
      <trkpt lat="48.63659" lon="2.07004">
        <ele>171</ele>
        <time>2025-01-21T08:14:21Z</time>
      </trkpt>
      <trkpt lat="48.6365" lon="2.06998">
        <ele>171</ele>
        <time>2025-01-21T08:14:28Z</time>
      </trkpt>
      <trkpt lat="48.63642" lon="2.0699">
        <ele>171</ele>
        <time>2025-01-21T08:14:35Z</time>
      </trkpt>
      <trkpt lat="48.63633" lon="2.06982">
        <ele>171</ele>
        <time>2025-01-21T08:14:42Z</time>
      </trkpt>
      <trkpt lat="48.63625" lon="2.06973">
        <ele>171</ele>
        <time>2025-01-21T08:14:49Z</time>
      </trkpt>
      <trkpt lat="48.63617" lon="2.06966">
        <ele>171</ele>
        <time>2025-01-21T08:14:55Z</time>
      </trkpt>
      <trkpt lat="48.63608" lon="2.06963">
        <ele>170.9</ele>
        <time>2025-01-21T08:15:01Z</time>
      </trkpt>
      <trkpt lat="48.636" lon="2.06956">
        <ele>170.8</ele>
        <time>2025-01-21T08:15:07Z</time>
      </trkpt>
      <trkpt lat="48.63591" lon="2.06949">
        <ele>170.9</ele>
        <time>2025-01-21T08:15:14Z</time>
      </trkpt>
      <trkpt lat="48.63583" lon="2.06942">
        <ele>170.9</ele>
        <time>2025-01-21T08:15:20Z</time>
      </trkpt>
      <trkpt lat="48.63574" lon="2.06934">
        <ele>170.4</ele>
        <time>2025-01-21T08:15:27Z</time>
      </trkpt>
      <trkpt lat="48.63565" lon="2.06926">
        <ele>170.1</ele>
        <time>2025-01-21T08:15:34Z</time>
      </trkpt>
      <trkpt lat="48.63556" lon="2.06918">
        <ele>170</ele>
        <time>2025-01-21T08:15:41Z</time>
      </trkpt>
      <trkpt lat="48.63548" lon="2.06909">
        <ele>170</ele>
        <time>2025-01-21T08:15:48Z</time>
      </trkpt>
      <trkpt lat="48.63541" lon="2.06898">
        <ele>170</ele>
        <time>2025-01-21T08:15:55Z</time>
      </trkpt>
      <trkpt lat="48.63534" lon="2.06889">
        <ele>170</ele>
        <time>2025-01-21T08:16:02Z</time>
      </trkpt>
      <trkpt lat="48.63525" lon="2.0688">
        <ele>169.6</ele>
        <time>2025-01-21T08:16:09Z</time>
      </trkpt>
      <trkpt lat="48.63516" lon="2.06872">
        <ele>169.2</ele>
        <time>2025-01-21T08:16:16Z</time>
      </trkpt>
      <trkpt lat="48.6351" lon="2.06861">
        <ele>169</ele>
        <time>2025-01-21T08:16:23Z</time>
      </trkpt>
      <trkpt lat="48.63503" lon="2.06851">
        <ele>169</ele>
        <time>2025-01-21T08:16:29Z</time>
      </trkpt>
      <trkpt lat="48.63497" lon="2.06841">
        <ele>168.9</ele>
        <time>2025-01-21T08:16:35Z</time>
      </trkpt>
      <trkpt lat="48.6349" lon="2.0683">
        <ele>168.6</ele>
        <time>2025-01-21T08:16:41Z</time>
      </trkpt>
      <trkpt lat="48.63484" lon="2.06819">
        <ele>168.4</ele>
        <time>2025-01-21T08:16:47Z</time>
      </trkpt>
      <trkpt lat="48.63479" lon="2.06808">
        <ele>168.2</ele>
        <time>2025-01-21T08:16:53Z</time>
      </trkpt>
      <trkpt lat="48.63474" lon="2.06797">
        <ele>168</ele>
        <time>2025-01-21T08:16:59Z</time>
      </trkpt>
      <trkpt lat="48.63467" lon="2.06785">
        <ele>167.8</ele>
        <time>2025-01-21T08:17:06Z</time>
      </trkpt>
      <trkpt lat="48.6346" lon="2.06773">
        <ele>167.6</ele>
        <time>2025-01-21T08:17:13Z</time>
      </trkpt>
      <trkpt lat="48.63454" lon="2.06763">
        <ele>167.4</ele>
        <time>2025-01-21T08:17:19Z</time>
      </trkpt>
      <trkpt lat="48.63448" lon="2.06751">
        <ele>167.1</ele>
        <time>2025-01-21T08:17:26Z</time>
      </trkpt>
      <trkpt lat="48.63441" lon="2.06741">
        <ele>166.7</ele>
        <time>2025-01-21T08:17:32Z</time>
      </trkpt>
      <trkpt lat="48.63433" lon="2.06733">
        <ele>166.2</ele>
        <time>2025-01-21T08:17:38Z</time>
      </trkpt>
      <trkpt lat="48.63425" lon="2.06728">
        <ele>165.6</ele>
        <time>2025-01-21T08:17:44Z</time>
      </trkpt>
      <trkpt lat="48.63416" lon="2.06728">
        <ele>165</ele>
        <time>2025-01-21T08:17:50Z</time>
      </trkpt>
      <trkpt lat="48.63407" lon="2.06726">
        <ele>164.6</ele>
        <time>2025-01-21T08:17:56Z</time>
      </trkpt>
      <trkpt lat="48.63397" lon="2.06725">
        <ele>164.3</ele>
        <time>2025-01-21T08:18:02Z</time>
      </trkpt>
      <trkpt lat="48.63388" lon="2.06726">
        <ele>163.8</ele>
        <time>2025-01-21T08:18:08Z</time>
      </trkpt>
      <trkpt lat="48.63379" lon="2.06728">
        <ele>163.2</ele>
        <time>2025-01-21T08:18:14Z</time>
      </trkpt>
      <trkpt lat="48.6337" lon="2.06728">
        <ele>162.6</ele>
        <time>2025-01-21T08:18:21Z</time>
      </trkpt>
      <trkpt lat="48.6336" lon="2.0673">
        <ele>162</ele>
        <time>2025-01-21T08:18:28Z</time>
      </trkpt>
      <trkpt lat="48.6335" lon="2.06729">
        <ele>161.6</ele>
        <time>2025-01-21T08:18:35Z</time>
      </trkpt>
      <trkpt lat="48.63341" lon="2.06728">
        <ele>161.3</ele>
        <time>2025-01-21T08:18:42Z</time>
      </trkpt>
      <trkpt lat="48.6333" lon="2.0673">
        <ele>160.9</ele>
        <time>2025-01-21T08:18:49Z</time>
      </trkpt>
      <trkpt lat="48.63321" lon="2.0673">
        <ele>160.6</ele>
        <time>2025-01-21T08:18:56Z</time>
      </trkpt>
      <trkpt lat="48.63312" lon="2.06733">
        <ele>160.2</ele>
        <time>2025-01-21T08:19:03Z</time>
      </trkpt>
      <trkpt lat="48.63303" lon="2.06733">
        <ele>159.9</ele>
        <time>2025-01-21T08:19:11Z</time>
      </trkpt>
      <trkpt lat="48.63293" lon="2.06734">
        <ele>159.4</ele>
        <time>2025-01-21T08:19:17Z</time>
      </trkpt>
      <trkpt lat="48.63283" lon="2.06735">
        <ele>158.8</ele>
        <time>2025-01-21T08:19:24Z</time>
      </trkpt>
      <trkpt lat="48.63273" lon="2.06735">
        <ele>158.4</ele>
        <time>2025-01-21T08:19:31Z</time>
      </trkpt>
      <trkpt lat="48.63263" lon="2.06733">
        <ele>158.1</ele>
        <time>2025-01-21T08:19:38Z</time>
      </trkpt>
      <trkpt lat="48.63253" lon="2.06732">
        <ele>157.8</ele>
        <time>2025-01-21T08:19:45Z</time>
      </trkpt>
      <trkpt lat="48.63244" lon="2.06736">
        <ele>157.2</ele>
        <time>2025-01-21T08:19:52Z</time>
      </trkpt>
      <trkpt lat="48.63235" lon="2.0674">
        <ele>156.6</ele>
        <time>2025-01-21T08:19:59Z</time>
      </trkpt>
      <trkpt lat="48.63225" lon="2.06741">
        <ele>156.1</ele>
        <time>2025-01-21T08:20:06Z</time>
      </trkpt>
      <trkpt lat="48.63215" lon="2.0674">
        <ele>155.6</ele>
        <time>2025-01-21T08:20:13Z</time>
      </trkpt>
      <trkpt lat="48.63205" lon="2.06739">
        <ele>155</ele>
        <time>2025-01-21T08:20:20Z</time>
      </trkpt>
      <trkpt lat="48.63194" lon="2.06738">
        <ele>154.4</ele>
        <time>2025-01-21T08:20:27Z</time>
      </trkpt>
      <trkpt lat="48.63185" lon="2.06738">
        <ele>154.1</ele>
        <time>2025-01-21T08:20:34Z</time>
      </trkpt>
      <trkpt lat="48.63175" lon="2.06737">
        <ele>153.8</ele>
        <time>2025-01-21T08:20:41Z</time>
      </trkpt>
      <trkpt lat="48.63165" lon="2.0674">
        <ele>153.3</ele>
        <time>2025-01-21T08:20:48Z</time>
      </trkpt>
      <trkpt lat="48.63155" lon="2.06741">
        <ele>152.5</ele>
        <time>2025-01-21T08:20:55Z</time>
      </trkpt>
      <trkpt lat="48.63145" lon="2.0674">
        <ele>151.8</ele>
        <time>2025-01-21T08:21:02Z</time>
      </trkpt>
      <trkpt lat="48.63135" lon="2.0674">
        <ele>151.4</ele>
        <time>2025-01-21T08:21:09Z</time>
      </trkpt>
      <trkpt lat="48.63125" lon="2.06739">
        <ele>151.4</ele>
        <time>2025-01-21T08:21:16Z</time>
      </trkpt>
      <trkpt lat="48.63115" lon="2.06738">
        <ele>151.4</ele>
        <time>2025-01-21T08:21:23Z</time>
      </trkpt>
      <trkpt lat="48.63104" lon="2.0674">
        <ele>152</ele>
        <time>2025-01-21T08:21:30Z</time>
      </trkpt>
      <trkpt lat="48.63095" lon="2.0674">
        <ele>152.9</ele>
        <time>2025-01-21T08:21:37Z</time>
      </trkpt>
      <trkpt lat="48.63085" lon="2.06741">
        <ele>153.8</ele>
        <time>2025-01-21T08:21:44Z</time>
      </trkpt>
      <trkpt lat="48.63076" lon="2.06742">
        <ele>154.6</ele>
        <time>2025-01-21T08:21:51Z</time>
      </trkpt>
      <trkpt lat="48.63066" lon="2.06743">
        <ele>155.2</ele>
        <time>2025-01-21T08:21:58Z</time>
      </trkpt>
      <trkpt lat="48.63058" lon="2.06747">
        <ele>155.8</ele>
        <time>2025-01-21T08:22:05Z</time>
      </trkpt>
      <trkpt lat="48.63049" lon="2.06748">
        <ele>156</ele>
        <time>2025-01-21T08:22:11Z</time>
      </trkpt>
      <trkpt lat="48.63039" lon="2.06748">
        <ele>156</ele>
        <time>2025-01-21T08:22:17Z</time>
      </trkpt>
      <trkpt lat="48.6303" lon="2.06748">
        <ele>156.1</ele>
        <time>2025-01-21T08:22:23Z</time>
      </trkpt>
      <trkpt lat="48.6302" lon="2.06749">
        <ele>156.1</ele>
        <time>2025-01-21T08:22:29Z</time>
      </trkpt>
      <trkpt lat="48.63011" lon="2.06748">
        <ele>156.1</ele>
        <time>2025-01-21T08:22:35Z</time>
      </trkpt>
      <trkpt lat="48.63002" lon="2.06749">
        <ele>156</ele>
        <time>2025-01-21T08:22:41Z</time>
      </trkpt>
      <trkpt lat="48.62992" lon="2.06748">
        <ele>155.8</ele>
        <time>2025-01-21T08:22:49Z</time>
      </trkpt>
      <trkpt lat="48.62982" lon="2.06749">
        <ele>155.4</ele>
        <time>2025-01-21T08:22:55Z</time>
      </trkpt>
      <trkpt lat="48.62973" lon="2.06747">
        <ele>155.3</ele>
        <time>2025-01-21T08:23:01Z</time>
      </trkpt>
      <trkpt lat="48.62963" lon="2.06747">
        <ele>155.2</ele>
        <time>2025-01-21T08:23:07Z</time>
      </trkpt>
      <trkpt lat="48.62954" lon="2.06748">
        <ele>155.1</ele>
        <time>2025-01-21T08:23:13Z</time>
      </trkpt>
      <trkpt lat="48.62944" lon="2.06744">
        <ele>155.2</ele>
        <time>2025-01-21T08:23:55Z</time>
      </trkpt>
      <trkpt lat="48.62939" lon="2.06757">
        <ele>154.5</ele>
        <time>2025-01-21T08:24:04Z</time>
      </trkpt>
      <trkpt lat="48.62939" lon="2.06771">
        <ele>154.1</ele>
        <time>2025-01-21T08:24:10Z</time>
      </trkpt>
      <trkpt lat="48.6294" lon="2.06786">
        <ele>153.3</ele>
        <time>2025-01-21T08:24:16Z</time>
      </trkpt>
      <trkpt lat="48.6294" lon="2.06801">
        <ele>152.2</ele>
        <time>2025-01-21T08:24:22Z</time>
      </trkpt>
      <trkpt lat="48.62941" lon="2.06815">
        <ele>151.5</ele>
        <time>2025-01-21T08:24:28Z</time>
      </trkpt>
      <trkpt lat="48.62941" lon="2.06829">
        <ele>151</ele>
        <time>2025-01-21T08:24:34Z</time>
      </trkpt>
      <trkpt lat="48.62941" lon="2.06844">
        <ele>150.5</ele>
        <time>2025-01-21T08:24:40Z</time>
      </trkpt>
      <trkpt lat="48.62942" lon="2.06858">
        <ele>150</ele>
        <time>2025-01-21T08:24:46Z</time>
      </trkpt>
      <trkpt lat="48.62941" lon="2.06872">
        <ele>149.5</ele>
        <time>2025-01-21T08:24:52Z</time>
      </trkpt>
      <trkpt lat="48.62941" lon="2.06886">
        <ele>149</ele>
        <time>2025-01-21T08:24:58Z</time>
      </trkpt>
      <trkpt lat="48.62941" lon="2.06902">
        <ele>148.4</ele>
        <time>2025-01-21T08:25:05Z</time>
      </trkpt>
      <trkpt lat="48.62942" lon="2.06916">
        <ele>147.9</ele>
        <time>2025-01-21T08:25:11Z</time>
      </trkpt>
      <trkpt lat="48.62942" lon="2.0693">
        <ele>147.4</ele>
        <time>2025-01-21T08:25:17Z</time>
      </trkpt>
      <trkpt lat="48.62942" lon="2.06944">
        <ele>146.9</ele>
        <time>2025-01-21T08:25:23Z</time>
      </trkpt>
      <trkpt lat="48.62942" lon="2.06958">
        <ele>146.4</ele>
        <time>2025-01-21T08:25:29Z</time>
      </trkpt>
      <trkpt lat="48.62943" lon="2.06973">
        <ele>145.9</ele>
        <time>2025-01-21T08:25:36Z</time>
      </trkpt>
      <trkpt lat="48.62943" lon="2.06989">
        <ele>145.3</ele>
        <time>2025-01-21T08:25:43Z</time>
      </trkpt>
      <trkpt lat="48.62943" lon="2.07004">
        <ele>144.9</ele>
        <time>2025-01-21T08:25:50Z</time>
      </trkpt>
      <trkpt lat="48.62943" lon="2.0702">
        <ele>144.9</ele>
        <time>2025-01-21T08:25:57Z</time>
      </trkpt>
      <trkpt lat="48.62943" lon="2.07036">
        <ele>144.6</ele>
        <time>2025-01-21T08:26:04Z</time>
      </trkpt>
      <trkpt lat="48.62943" lon="2.07049">
        <ele>144.2</ele>
        <time>2025-01-21T08:26:10Z</time>
      </trkpt>
      <trkpt lat="48.62943" lon="2.07065">
        <ele>144</ele>
        <time>2025-01-21T08:26:17Z</time>
      </trkpt>
      <trkpt lat="48.62943" lon="2.0708">
        <ele>144</ele>
        <time>2025-01-21T08:26:24Z</time>
      </trkpt>
      <trkpt lat="48.62944" lon="2.07095">
        <ele>144</ele>
        <time>2025-01-21T08:26:31Z</time>
      </trkpt>
      <trkpt lat="48.62944" lon="2.0711">
        <ele>144</ele>
        <time>2025-01-21T08:26:38Z</time>
      </trkpt>
      <trkpt lat="48.62944" lon="2.07125">
        <ele>144</ele>
        <time>2025-01-21T08:26:45Z</time>
      </trkpt>
      <trkpt lat="48.62944" lon="2.0714">
        <ele>144</ele>
        <time>2025-01-21T08:26:52Z</time>
      </trkpt>
      <trkpt lat="48.62944" lon="2.07154">
        <ele>144.5</ele>
        <time>2025-01-21T08:26:59Z</time>
      </trkpt>
      <trkpt lat="48.62934" lon="2.07155">
        <ele>144.2</ele>
        <time>2025-01-21T08:27:06Z</time>
      </trkpt>
      <trkpt lat="48.62924" lon="2.07153">
        <ele>143.8</ele>
        <time>2025-01-21T08:27:12Z</time>
      </trkpt>
      <trkpt lat="48.62915" lon="2.07152">
        <ele>143.4</ele>
        <time>2025-01-21T08:27:18Z</time>
      </trkpt>
      <trkpt lat="48.62906" lon="2.0715">
        <ele>142.9</ele>
        <time>2025-01-21T08:27:24Z</time>
      </trkpt>
      <trkpt lat="48.62896" lon="2.0715">
        <ele>142.4</ele>
        <time>2025-01-21T08:27:31Z</time>
      </trkpt>
      <trkpt lat="48.62887" lon="2.07148">
        <ele>142</ele>
        <time>2025-01-21T08:27:38Z</time>
      </trkpt>
      <trkpt lat="48.62876" lon="2.07146">
        <ele>141.9</ele>
        <time>2025-01-21T08:27:45Z</time>
      </trkpt>
      <trkpt lat="48.62866" lon="2.07143">
        <ele>141.9</ele>
        <time>2025-01-21T08:27:52Z</time>
      </trkpt>
      <trkpt lat="48.62856" lon="2.07141">
        <ele>141.9</ele>
        <time>2025-01-21T08:27:59Z</time>
      </trkpt>
      <trkpt lat="48.62846" lon="2.0714">
        <ele>142</ele>
        <time>2025-01-21T08:28:06Z</time>
      </trkpt>
      <trkpt lat="48.62837" lon="2.07138">
        <ele>142</ele>
        <time>2025-01-21T08:28:12Z</time>
      </trkpt>
      <trkpt lat="48.62827" lon="2.07136">
        <ele>142.5</ele>
        <time>2025-01-21T08:28:19Z</time>
      </trkpt>
      <trkpt lat="48.62817" lon="2.07134">
        <ele>143.2</ele>
        <time>2025-01-21T08:28:26Z</time>
      </trkpt>
      <trkpt lat="48.62808" lon="2.07134">
        <ele>143.8</ele>
        <time>2025-01-21T08:28:33Z</time>
      </trkpt>
      <trkpt lat="48.62799" lon="2.07131">
        <ele>144.8</ele>
        <time>2025-01-21T08:28:40Z</time>
      </trkpt>
      <trkpt lat="48.62789" lon="2.07129">
        <ele>145.8</ele>
        <time>2025-01-21T08:28:47Z</time>
      </trkpt>
      <trkpt lat="48.6278" lon="2.07127">
        <ele>146.7</ele>
        <time>2025-01-21T08:28:54Z</time>
      </trkpt>
      <trkpt lat="48.62771" lon="2.07125">
        <ele>148</ele>
        <time>2025-01-21T08:29:01Z</time>
      </trkpt>
      <trkpt lat="48.62762" lon="2.07122">
        <ele>149.3</ele>
        <time>2025-01-21T08:29:09Z</time>
      </trkpt>
      <trkpt lat="48.62752" lon="2.07121">
        <ele>150.7</ele>
        <time>2025-01-21T08:29:17Z</time>
      </trkpt>
      <trkpt lat="48.62743" lon="2.07119">
        <ele>151.8</ele>
        <time>2025-01-21T08:29:25Z</time>
      </trkpt>
      <trkpt lat="48.62733" lon="2.07117">
        <ele>152.8</ele>
        <time>2025-01-21T08:29:33Z</time>
      </trkpt>
      <trkpt lat="48.62723" lon="2.07115">
        <ele>153.9</ele>
        <time>2025-01-21T08:29:41Z</time>
      </trkpt>
      <trkpt lat="48.62714" lon="2.07112">
        <ele>154.6</ele>
        <time>2025-01-21T08:29:49Z</time>
      </trkpt>
      <trkpt lat="48.62704" lon="2.0711">
        <ele>155.3</ele>
        <time>2025-01-21T08:29:57Z</time>
      </trkpt>
      <trkpt lat="48.62694" lon="2.07109">
        <ele>156</ele>
        <time>2025-01-21T08:30:05Z</time>
      </trkpt>
      <trkpt lat="48.62685" lon="2.07109">
        <ele>156.7</ele>
        <time>2025-01-21T08:30:12Z</time>
      </trkpt>
      <trkpt lat="48.62676" lon="2.07113">
        <ele>157.4</ele>
        <time>2025-01-21T08:30:20Z</time>
      </trkpt>
      <trkpt lat="48.62667" lon="2.07121">
        <ele>157.9</ele>
        <time>2025-01-21T08:30:27Z</time>
      </trkpt>
      <trkpt lat="48.62662" lon="2.07133">
        <ele>158.2</ele>
        <time>2025-01-21T08:30:35Z</time>
      </trkpt>
      <trkpt lat="48.6266" lon="2.07147">
        <ele>158.3</ele>
        <time>2025-01-21T08:30:49Z</time>
      </trkpt>
      <trkpt lat="48.62657" lon="2.0716">
        <ele>158.6</ele>
        <time>2025-01-21T08:31:48Z</time>
      </trkpt>
      <trkpt lat="48.62651" lon="2.07173">
        <ele>159.1</ele>
        <time>2025-01-21T08:31:56Z</time>
      </trkpt>
      <trkpt lat="48.62643" lon="2.0718">
        <ele>159.7</ele>
        <time>2025-01-21T08:32:03Z</time>
      </trkpt>
      <trkpt lat="48.62636" lon="2.07188">
        <ele>160.2</ele>
        <time>2025-01-21T08:32:10Z</time>
      </trkpt>
      <trkpt lat="48.62628" lon="2.07197">
        <ele>160.8</ele>
        <time>2025-01-21T08:32:18Z</time>
      </trkpt>
      <trkpt lat="48.62623" lon="2.07209">
        <ele>161.1</ele>
        <time>2025-01-21T08:32:25Z</time>
      </trkpt>
      <trkpt lat="48.6262" lon="2.07224">
        <ele>161.4</ele>
        <time>2025-01-21T08:32:32Z</time>
      </trkpt>
      <trkpt lat="48.62615" lon="2.07238">
        <ele>161.7</ele>
        <time>2025-01-21T08:32:39Z</time>
      </trkpt>
      <trkpt lat="48.62609" lon="2.07249">
        <ele>162.1</ele>
        <time>2025-01-21T08:32:45Z</time>
      </trkpt>
      <trkpt lat="48.62603" lon="2.07259">
        <ele>162.6</ele>
        <time>2025-01-21T08:32:51Z</time>
      </trkpt>
      <trkpt lat="48.62596" lon="2.0727">
        <ele>163.1</ele>
        <time>2025-01-21T08:32:58Z</time>
      </trkpt>
      <trkpt lat="48.6259" lon="2.0728">
        <ele>163.4</ele>
        <time>2025-01-21T08:33:05Z</time>
      </trkpt>
      <trkpt lat="48.62586" lon="2.07292">
        <ele>163.3</ele>
        <time>2025-01-21T08:33:11Z</time>
      </trkpt>
      <trkpt lat="48.6258" lon="2.07304">
        <ele>163.3</ele>
        <time>2025-01-21T08:33:19Z</time>
      </trkpt>
      <trkpt lat="48.62583" lon="2.07317">
        <ele>163</ele>
        <time>2025-01-21T08:33:29Z</time>
      </trkpt>
      <trkpt lat="48.6259" lon="2.07328">
        <ele>162.8</ele>
        <time>2025-01-21T08:33:36Z</time>
      </trkpt>
      <trkpt lat="48.62594" lon="2.07341">
        <ele>162.6</ele>
        <time>2025-01-21T08:33:43Z</time>
      </trkpt>
      <trkpt lat="48.62594" lon="2.07357">
        <ele>162.6</ele>
        <time>2025-01-21T08:33:51Z</time>
      </trkpt>
      <trkpt lat="48.6259" lon="2.07368">
        <ele>162.8</ele>
        <time>2025-01-21T08:33:57Z</time>
      </trkpt>
      <trkpt lat="48.62584" lon="2.07381">
        <ele>163</ele>
        <time>2025-01-21T08:34:03Z</time>
      </trkpt>
      <trkpt lat="48.62579" lon="2.07394">
        <ele>163.1</ele>
        <time>2025-01-21T08:34:09Z</time>
      </trkpt>
      <trkpt lat="48.62575" lon="2.07406">
        <ele>163.1</ele>
        <time>2025-01-21T08:34:15Z</time>
      </trkpt>
      <trkpt lat="48.62573" lon="2.0742">
        <ele>162.9</ele>
        <time>2025-01-21T08:34:22Z</time>
      </trkpt>
      <trkpt lat="48.6257" lon="2.07434">
        <ele>162.4</ele>
        <time>2025-01-21T08:34:42Z</time>
      </trkpt>
      <trkpt lat="48.62567" lon="2.07447">
        <ele>161.9</ele>
        <time>2025-01-21T08:34:49Z</time>
      </trkpt>
      <trkpt lat="48.62565" lon="2.0746">
        <ele>161.4</ele>
        <time>2025-01-21T08:34:55Z</time>
      </trkpt>
      <trkpt lat="48.6256" lon="2.07474">
        <ele>160.9</ele>
        <time>2025-01-21T08:35:02Z</time>
      </trkpt>
      <trkpt lat="48.62553" lon="2.07484">
        <ele>160.7</ele>
        <time>2025-01-21T08:35:09Z</time>
      </trkpt>
      <trkpt lat="48.62544" lon="2.07492">
        <ele>160.7</ele>
        <time>2025-01-21T08:35:16Z</time>
      </trkpt>
      <trkpt lat="48.62535" lon="2.07497">
        <ele>160.8</ele>
        <time>2025-01-21T08:35:23Z</time>
      </trkpt>
      <trkpt lat="48.62525" lon="2.07499">
        <ele>161.1</ele>
        <time>2025-01-21T08:35:30Z</time>
      </trkpt>
      <trkpt lat="48.62516" lon="2.07497">
        <ele>161.5</ele>
        <time>2025-01-21T08:35:37Z</time>
      </trkpt>
      <trkpt lat="48.62506" lon="2.07494">
        <ele>162</ele>
        <time>2025-01-21T08:35:44Z</time>
      </trkpt>
      <trkpt lat="48.62496" lon="2.0749">
        <ele>162.5</ele>
        <time>2025-01-21T08:35:51Z</time>
      </trkpt>
      <trkpt lat="48.62487" lon="2.07489">
        <ele>162.9</ele>
        <time>2025-01-21T08:35:58Z</time>
      </trkpt>
      <trkpt lat="48.62476" lon="2.0749">
        <ele>163.2</ele>
        <time>2025-01-21T08:36:06Z</time>
      </trkpt>
      <trkpt lat="48.62467" lon="2.0749">
        <ele>163.4</ele>
        <time>2025-01-21T08:36:13Z</time>
      </trkpt>
      <trkpt lat="48.62457" lon="2.07488">
        <ele>163.4</ele>
        <time>2025-01-21T08:36:20Z</time>
      </trkpt>
      <trkpt lat="48.62447" lon="2.07485">
        <ele>163.6</ele>
        <time>2025-01-21T08:36:27Z</time>
      </trkpt>
      <trkpt lat="48.62437" lon="2.07482">
        <ele>163.6</ele>
        <time>2025-01-21T08:36:34Z</time>
      </trkpt>
      <trkpt lat="48.62428" lon="2.07478">
        <ele>163.8</ele>
        <time>2025-01-21T08:36:41Z</time>
      </trkpt>
      <trkpt lat="48.62419" lon="2.07473">
        <ele>164</ele>
        <time>2025-01-21T08:36:48Z</time>
      </trkpt>
      <trkpt lat="48.6241" lon="2.07468">
        <ele>163.7</ele>
        <time>2025-01-21T08:36:55Z</time>
      </trkpt>
      <trkpt lat="48.624" lon="2.07469">
        <ele>162.9</ele>
        <time>2025-01-21T08:37:03Z</time>
      </trkpt>
      <trkpt lat="48.62391" lon="2.07468">
        <ele>162.1</ele>
        <time>2025-01-21T08:37:11Z</time>
      </trkpt>
      <trkpt lat="48.62382" lon="2.07463">
        <ele>161.5</ele>
        <time>2025-01-21T08:37:18Z</time>
      </trkpt>
      <trkpt lat="48.62374" lon="2.07456">
        <ele>160.9</ele>
        <time>2025-01-21T08:37:25Z</time>
      </trkpt>
      <trkpt lat="48.62365" lon="2.07449">
        <ele>160.3</ele>
        <time>2025-01-21T08:37:32Z</time>
      </trkpt>
      <trkpt lat="48.62357" lon="2.07442">
        <ele>159.6</ele>
        <time>2025-01-21T08:37:39Z</time>
      </trkpt>
      <trkpt lat="48.62349" lon="2.07432">
        <ele>158.7</ele>
        <time>2025-01-21T08:37:46Z</time>
      </trkpt>
      <trkpt lat="48.62341" lon="2.07423">
        <ele>157.8</ele>
        <time>2025-01-21T08:37:53Z</time>
      </trkpt>
      <trkpt lat="48.62333" lon="2.07414">
        <ele>156.9</ele>
        <time>2025-01-21T08:38:00Z</time>
      </trkpt>
      <trkpt lat="48.62326" lon="2.07405">
        <ele>156.3</ele>
        <time>2025-01-21T08:38:07Z</time>
      </trkpt>
      <trkpt lat="48.62318" lon="2.07395">
        <ele>155.8</ele>
        <time>2025-01-21T08:38:14Z</time>
      </trkpt>
      <trkpt lat="48.6231" lon="2.07388">
        <ele>155.4</ele>
        <time>2025-01-21T08:38:21Z</time>
      </trkpt>
      <trkpt lat="48.62302" lon="2.07381">
        <ele>155.2</ele>
        <time>2025-01-21T08:38:28Z</time>
      </trkpt>
      <trkpt lat="48.62293" lon="2.07375">
        <ele>155.3</ele>
        <time>2025-01-21T08:38:35Z</time>
      </trkpt>
      <trkpt lat="48.62284" lon="2.07375">
        <ele>155.1</ele>
        <time>2025-01-21T08:38:53Z</time>
      </trkpt>
      <trkpt lat="48.62275" lon="2.07375">
        <ele>155.3</ele>
        <time>2025-01-21T08:39:19Z</time>
      </trkpt>
      <trkpt lat="48.62265" lon="2.07379">
        <ele>155.9</ele>
        <time>2025-01-21T08:39:32Z</time>
      </trkpt>
      <trkpt lat="48.62256" lon="2.07385">
        <ele>156.5</ele>
        <time>2025-01-21T08:39:41Z</time>
      </trkpt>
      <trkpt lat="48.62247" lon="2.07389">
        <ele>157.2</ele>
        <time>2025-01-21T08:39:49Z</time>
      </trkpt>
      <trkpt lat="48.62238" lon="2.0739">
        <ele>157.8</ele>
        <time>2025-01-21T08:39:56Z</time>
      </trkpt>
      <trkpt lat="48.62228" lon="2.0739">
        <ele>158.5</ele>
        <time>2025-01-21T08:40:03Z</time>
      </trkpt>
      <trkpt lat="48.62219" lon="2.07385">
        <ele>159.3</ele>
        <time>2025-01-21T08:40:11Z</time>
      </trkpt>
      <trkpt lat="48.6221" lon="2.07379">
        <ele>159.9</ele>
        <time>2025-01-21T08:40:20Z</time>
      </trkpt>
      <trkpt lat="48.62201" lon="2.07376">
        <ele>160.6</ele>
        <time>2025-01-21T08:40:29Z</time>
      </trkpt>
      <trkpt lat="48.62194" lon="2.07368">
        <ele>161.5</ele>
        <time>2025-01-21T08:40:57Z</time>
      </trkpt>
      <trkpt lat="48.62185" lon="2.0736">
        <ele>162.5</ele>
        <time>2025-01-21T08:41:19Z</time>
      </trkpt>
      <trkpt lat="48.62177" lon="2.07352">
        <ele>163.3</ele>
        <time>2025-01-21T08:41:25Z</time>
      </trkpt>
      <trkpt lat="48.62168" lon="2.07346">
        <ele>164</ele>
        <time>2025-01-21T08:41:32Z</time>
      </trkpt>
      <trkpt lat="48.62159" lon="2.07341">
        <ele>164.1</ele>
        <time>2025-01-21T08:41:40Z</time>
      </trkpt>
      <trkpt lat="48.6215" lon="2.07335">
        <ele>164.2</ele>
        <time>2025-01-21T08:42:21Z</time>
      </trkpt>
      <trkpt lat="48.62141" lon="2.07334">
        <ele>164</ele>
        <time>2025-01-21T08:42:30Z</time>
      </trkpt>
      <trkpt lat="48.62132" lon="2.07331">
        <ele>164.2</ele>
        <time>2025-01-21T08:42:36Z</time>
      </trkpt>
      <trkpt lat="48.62122" lon="2.07331">
        <ele>164.2</ele>
        <time>2025-01-21T08:42:44Z</time>
      </trkpt>
      <trkpt lat="48.62113" lon="2.07334">
        <ele>164</ele>
        <time>2025-01-21T08:42:51Z</time>
      </trkpt>
      <trkpt lat="48.62105" lon="2.0734">
        <ele>164.5</ele>
        <time>2025-01-21T08:42:58Z</time>
      </trkpt>
      <trkpt lat="48.62095" lon="2.07344">
        <ele>165.6</ele>
        <time>2025-01-21T08:43:05Z</time>
      </trkpt>
      <trkpt lat="48.62085" lon="2.07348">
        <ele>166.7</ele>
        <time>2025-01-21T08:43:12Z</time>
      </trkpt>
      <trkpt lat="48.62076" lon="2.07353">
        <ele>167.2</ele>
        <time>2025-01-21T08:43:20Z</time>
      </trkpt>
      <trkpt lat="48.62068" lon="2.07355">
        <ele>167.6</ele>
        <time>2025-01-21T08:43:28Z</time>
      </trkpt>
      <trkpt lat="48.62058" lon="2.07358">
        <ele>167.9</ele>
        <time>2025-01-21T08:43:34Z</time>
      </trkpt>
      <trkpt lat="48.62049" lon="2.07359">
        <ele>168</ele>
        <time>2025-01-21T08:43:41Z</time>
      </trkpt>
      <trkpt lat="48.6204" lon="2.07364">
        <ele>168</ele>
        <time>2025-01-21T08:43:47Z</time>
      </trkpt>
      <trkpt lat="48.6203" lon="2.07367">
        <ele>168</ele>
        <time>2025-01-21T08:43:55Z</time>
      </trkpt>
      <trkpt lat="48.62021" lon="2.07368">
        <ele>167.7</ele>
        <time>2025-01-21T08:44:01Z</time>
      </trkpt>
      <trkpt lat="48.62011" lon="2.07369">
        <ele>167.4</ele>
        <time>2025-01-21T08:44:07Z</time>
      </trkpt>
      <trkpt lat="48.62002" lon="2.07373">
        <ele>167.1</ele>
        <time>2025-01-21T08:44:14Z</time>
      </trkpt>
      <trkpt lat="48.61994" lon="2.07379">
        <ele>167</ele>
        <time>2025-01-21T08:44:21Z</time>
      </trkpt>
      <trkpt lat="48.61985" lon="2.07386">
        <ele>167</ele>
        <time>2025-01-21T08:44:29Z</time>
      </trkpt>
      <trkpt lat="48.61979" lon="2.07396">
        <ele>167</ele>
        <time>2025-01-21T08:44:36Z</time>
      </trkpt>
      <trkpt lat="48.61973" lon="2.07408">
        <ele>167</ele>
        <time>2025-01-21T08:44:44Z</time>
      </trkpt>
      <trkpt lat="48.61969" lon="2.07423">
        <ele>166.9</ele>
        <time>2025-01-21T08:44:51Z</time>
      </trkpt>
      <trkpt lat="48.61965" lon="2.07437">
        <ele>166.7</ele>
        <time>2025-01-21T08:44:59Z</time>
      </trkpt>
      <trkpt lat="48.61961" lon="2.07449">
        <ele>166.6</ele>
        <time>2025-01-21T08:45:06Z</time>
      </trkpt>
      <trkpt lat="48.61956" lon="2.07462">
        <ele>166.4</ele>
        <time>2025-01-21T08:45:13Z</time>
      </trkpt>
      <trkpt lat="48.61953" lon="2.07477">
        <ele>166.3</ele>
        <time>2025-01-21T08:45:20Z</time>
      </trkpt>
      <trkpt lat="48.61951" lon="2.0749">
        <ele>166.2</ele>
        <time>2025-01-21T08:45:26Z</time>
      </trkpt>
      <trkpt lat="48.61947" lon="2.07505">
        <ele>166.1</ele>
        <time>2025-01-21T08:45:33Z</time>
      </trkpt>
      <trkpt lat="48.61941" lon="2.07517">
        <ele>165.9</ele>
        <time>2025-01-21T08:45:40Z</time>
      </trkpt>
      <trkpt lat="48.61934" lon="2.07528">
        <ele>165.6</ele>
        <time>2025-01-21T08:45:47Z</time>
      </trkpt>
      <trkpt lat="48.61928" lon="2.07539">
        <ele>165.2</ele>
        <time>2025-01-21T08:45:54Z</time>
      </trkpt>
      <trkpt lat="48.61924" lon="2.07552">
        <ele>165</ele>
        <time>2025-01-21T08:46:00Z</time>
      </trkpt>
      <trkpt lat="48.61921" lon="2.07565">
        <ele>164.7</ele>
        <time>2025-01-21T08:46:06Z</time>
      </trkpt>
      <trkpt lat="48.61917" lon="2.07578">
        <ele>164.2</ele>
        <time>2025-01-21T08:46:13Z</time>
      </trkpt>
      <trkpt lat="48.61912" lon="2.0759">
        <ele>163.9</ele>
        <time>2025-01-21T08:46:20Z</time>
      </trkpt>
      <trkpt lat="48.61908" lon="2.07603">
        <ele>163.9</ele>
        <time>2025-01-21T08:46:26Z</time>
      </trkpt>
      <trkpt lat="48.61904" lon="2.07615">
        <ele>164</ele>
        <time>2025-01-21T08:46:32Z</time>
      </trkpt>
      <trkpt lat="48.61899" lon="2.07626">
        <ele>164</ele>
        <time>2025-01-21T08:46:38Z</time>
      </trkpt>
      <trkpt lat="48.61894" lon="2.07638">
        <ele>164</ele>
        <time>2025-01-21T08:46:45Z</time>
      </trkpt>
      <trkpt lat="48.61888" lon="2.07651">
        <ele>164.4</ele>
        <time>2025-01-21T08:46:52Z</time>
      </trkpt>
      <trkpt lat="48.61884" lon="2.07663">
        <ele>164.9</ele>
        <time>2025-01-21T08:47:20Z</time>
      </trkpt>
      <trkpt lat="48.6188" lon="2.07678">
        <ele>165</ele>
        <time>2025-01-21T08:47:30Z</time>
      </trkpt>
      <trkpt lat="48.61876" lon="2.07691">
        <ele>165</ele>
        <time>2025-01-21T08:47:38Z</time>
      </trkpt>
      <trkpt lat="48.61871" lon="2.07704">
        <ele>165.2</ele>
        <time>2025-01-21T08:47:45Z</time>
      </trkpt>
      <trkpt lat="48.61867" lon="2.07717">
        <ele>165.6</ele>
        <time>2025-01-21T08:47:52Z</time>
      </trkpt>
      <trkpt lat="48.61863" lon="2.07729">
        <ele>165.9</ele>
        <time>2025-01-21T08:47:58Z</time>
      </trkpt>
      <trkpt lat="48.61859" lon="2.07742">
        <ele>165.8</ele>
        <time>2025-01-21T08:48:05Z</time>
      </trkpt>
      <trkpt lat="48.61855" lon="2.07756">
        <ele>165.2</ele>
        <time>2025-01-21T08:48:13Z</time>
      </trkpt>
      <trkpt lat="48.61849" lon="2.07767">
        <ele>164.4</ele>
        <time>2025-01-21T08:48:21Z</time>
      </trkpt>
      <trkpt lat="48.61845" lon="2.07781">
        <ele>163.9</ele>
        <time>2025-01-21T08:48:29Z</time>
      </trkpt>
      <trkpt lat="48.61838" lon="2.07793">
        <ele>163.8</ele>
        <time>2025-01-21T08:48:36Z</time>
      </trkpt>
      <trkpt lat="48.61832" lon="2.07804">
        <ele>163.6</ele>
        <time>2025-01-21T08:48:44Z</time>
      </trkpt>
      <trkpt lat="48.61826" lon="2.07816">
        <ele>163</ele>
        <time>2025-01-21T08:48:51Z</time>
      </trkpt>
      <trkpt lat="48.6182" lon="2.07828">
        <ele>162.7</ele>
        <time>2025-01-21T08:48:58Z</time>
      </trkpt>
      <trkpt lat="48.61814" lon="2.07838">
        <ele>162.4</ele>
        <time>2025-01-21T08:49:06Z</time>
      </trkpt>
      <trkpt lat="48.61809" lon="2.0785">
        <ele>162.5</ele>
        <time>2025-01-21T08:49:12Z</time>
      </trkpt>
      <trkpt lat="48.61804" lon="2.07862">
        <ele>162.8</ele>
        <time>2025-01-21T08:49:19Z</time>
      </trkpt>
      <trkpt lat="48.61797" lon="2.07873">
        <ele>162.3</ele>
        <time>2025-01-21T08:49:26Z</time>
      </trkpt>
      <trkpt lat="48.6179" lon="2.07884">
        <ele>162.1</ele>
        <time>2025-01-21T08:49:33Z</time>
      </trkpt>
      <trkpt lat="48.61785" lon="2.07896">
        <ele>162.2</ele>
        <time>2025-01-21T08:49:40Z</time>
      </trkpt>
      <trkpt lat="48.6178" lon="2.07909">
        <ele>162.6</ele>
        <time>2025-01-21T08:49:46Z</time>
      </trkpt>
      <trkpt lat="48.61775" lon="2.07922">
        <ele>163.1</ele>
        <time>2025-01-21T08:49:53Z</time>
      </trkpt>
      <trkpt lat="48.61768" lon="2.07933">
        <ele>163.1</ele>
        <time>2025-01-21T08:50:00Z</time>
      </trkpt>
      <trkpt lat="48.61762" lon="2.07943">
        <ele>163.2</ele>
        <time>2025-01-21T08:50:07Z</time>
      </trkpt>
      <trkpt lat="48.61757" lon="2.07955">
        <ele>163.4</ele>
        <time>2025-01-21T08:50:13Z</time>
      </trkpt>
      <trkpt lat="48.61751" lon="2.07967">
        <ele>163.7</ele>
        <time>2025-01-21T08:50:20Z</time>
      </trkpt>
      <trkpt lat="48.61746" lon="2.0798">
        <ele>163.7</ele>
        <time>2025-01-21T08:50:26Z</time>
      </trkpt>
      <trkpt lat="48.6174" lon="2.07992">
        <ele>163.5</ele>
        <time>2025-01-21T08:50:33Z</time>
      </trkpt>
      <trkpt lat="48.61736" lon="2.08004">
        <ele>163.6</ele>
        <time>2025-01-21T08:50:40Z</time>
      </trkpt>
      <trkpt lat="48.61733" lon="2.08019">
        <ele>163.9</ele>
        <time>2025-01-21T08:50:48Z</time>
      </trkpt>
      <trkpt lat="48.6173" lon="2.08034">
        <ele>164</ele>
        <time>2025-01-21T08:50:55Z</time>
      </trkpt>
      <trkpt lat="48.61728" lon="2.08047">
        <ele>164.2</ele>
        <time>2025-01-21T08:51:02Z</time>
      </trkpt>
      <trkpt lat="48.61725" lon="2.08062">
        <ele>164.2</ele>
        <time>2025-01-21T08:51:09Z</time>
      </trkpt>
      <trkpt lat="48.61724" lon="2.08078">
        <ele>164.2</ele>
        <time>2025-01-21T08:51:16Z</time>
      </trkpt>
      <trkpt lat="48.61723" lon="2.08092">
        <ele>164.3</ele>
        <time>2025-01-21T08:51:23Z</time>
      </trkpt>
      <trkpt lat="48.61721" lon="2.08106">
        <ele>164.5</ele>
        <time>2025-01-21T08:51:30Z</time>
      </trkpt>
      <trkpt lat="48.61719" lon="2.08122">
        <ele>163.9</ele>
        <time>2025-01-21T08:51:37Z</time>
      </trkpt>
      <trkpt lat="48.61717" lon="2.08137">
        <ele>162.9</ele>
        <time>2025-01-21T08:51:44Z</time>
      </trkpt>
      <trkpt lat="48.61715" lon="2.08153">
        <ele>162.5</ele>
        <time>2025-01-21T08:51:51Z</time>
      </trkpt>
      <trkpt lat="48.61714" lon="2.08168">
        <ele>162.2</ele>
        <time>2025-01-21T08:51:58Z</time>
      </trkpt>
      <trkpt lat="48.61713" lon="2.08182">
        <ele>162</ele>
        <time>2025-01-21T08:52:05Z</time>
      </trkpt>
      <trkpt lat="48.61712" lon="2.08197">
        <ele>161.8</ele>
        <time>2025-01-21T08:52:12Z</time>
      </trkpt>
      <trkpt lat="48.61707" lon="2.0821">
        <ele>161.6</ele>
        <time>2025-01-21T08:52:20Z</time>
      </trkpt>
      <trkpt lat="48.61701" lon="2.08222">
        <ele>161.1</ele>
        <time>2025-01-21T08:52:28Z</time>
      </trkpt>
      <trkpt lat="48.61693" lon="2.08231">
        <ele>160.4</ele>
        <time>2025-01-21T08:52:35Z</time>
      </trkpt>
      <trkpt lat="48.61686" lon="2.08241">
        <ele>160.2</ele>
        <time>2025-01-21T08:52:48Z</time>
      </trkpt>
      <trkpt lat="48.61682" lon="2.08253">
        <ele>160.4</ele>
        <time>2025-01-21T08:52:56Z</time>
      </trkpt>
      <trkpt lat="48.61672" lon="2.08254">
        <ele>159.1</ele>
        <time>2025-01-21T08:53:04Z</time>
      </trkpt>
      <trkpt lat="48.61666" lon="2.08266">
        <ele>159.1</ele>
        <time>2025-01-21T08:53:10Z</time>
      </trkpt>
      <trkpt lat="48.61659" lon="2.08275">
        <ele>159</ele>
        <time>2025-01-21T08:53:21Z</time>
      </trkpt>
      <trkpt lat="48.61652" lon="2.08285">
        <ele>158.7</ele>
        <time>2025-01-21T08:53:28Z</time>
      </trkpt>
      <trkpt lat="48.61644" lon="2.08292">
        <ele>158</ele>
        <time>2025-01-21T08:53:36Z</time>
      </trkpt>
      <trkpt lat="48.61635" lon="2.08296">
        <ele>157.2</ele>
        <time>2025-01-21T08:53:44Z</time>
      </trkpt>
      <trkpt lat="48.61627" lon="2.08304">
        <ele>156.7</ele>
        <time>2025-01-21T08:53:51Z</time>
      </trkpt>
      <trkpt lat="48.6162" lon="2.08312">
        <ele>155.9</ele>
        <time>2025-01-21T08:53:58Z</time>
      </trkpt>
      <trkpt lat="48.61612" lon="2.0832">
        <ele>155.1</ele>
        <time>2025-01-21T08:54:05Z</time>
      </trkpt>
      <trkpt lat="48.61604" lon="2.0833">
        <ele>154.5</ele>
        <time>2025-01-21T08:54:12Z</time>
      </trkpt>
      <trkpt lat="48.61596" lon="2.08341">
        <ele>153.9</ele>
        <time>2025-01-21T08:54:19Z</time>
      </trkpt>
      <trkpt lat="48.61589" lon="2.08352">
        <ele>153.4</ele>
        <time>2025-01-21T08:54:26Z</time>
      </trkpt>
      <trkpt lat="48.61582" lon="2.08363">
        <ele>153</ele>
        <time>2025-01-21T08:54:33Z</time>
      </trkpt>
      <trkpt lat="48.61576" lon="2.08374">
        <ele>152.6</ele>
        <time>2025-01-21T08:54:41Z</time>
      </trkpt>
      <trkpt lat="48.6157" lon="2.08386">
        <ele>152</ele>
        <time>2025-01-21T08:54:48Z</time>
      </trkpt>
      <trkpt lat="48.61565" lon="2.08398">
        <ele>151.7</ele>
        <time>2025-01-21T08:54:54Z</time>
      </trkpt>
      <trkpt lat="48.61559" lon="2.08411">
        <ele>151.3</ele>
        <time>2025-01-21T08:55:01Z</time>
      </trkpt>
      <trkpt lat="48.61554" lon="2.08424">
        <ele>150.6</ele>
        <time>2025-01-21T08:55:08Z</time>
      </trkpt>
      <trkpt lat="48.61549" lon="2.08437">
        <ele>149.7</ele>
        <time>2025-01-21T08:55:15Z</time>
      </trkpt>
      <trkpt lat="48.61545" lon="2.08451">
        <ele>149.2</ele>
        <time>2025-01-21T08:55:22Z</time>
      </trkpt>
      <trkpt lat="48.6154" lon="2.08464">
        <ele>148.9</ele>
        <time>2025-01-21T08:55:29Z</time>
      </trkpt>
      <trkpt lat="48.61535" lon="2.08478">
        <ele>148.5</ele>
        <time>2025-01-21T08:55:36Z</time>
      </trkpt>
      <trkpt lat="48.6153" lon="2.0849">
        <ele>148.1</ele>
        <time>2025-01-21T08:55:43Z</time>
      </trkpt>
      <trkpt lat="48.61526" lon="2.08504">
        <ele>147.9</ele>
        <time>2025-01-21T08:55:50Z</time>
      </trkpt>
      <trkpt lat="48.6152" lon="2.08516">
        <ele>147.5</ele>
        <time>2025-01-21T08:55:57Z</time>
      </trkpt>
      <trkpt lat="48.61513" lon="2.08527">
        <ele>147</ele>
        <time>2025-01-21T08:56:04Z</time>
      </trkpt>
      <trkpt lat="48.61507" lon="2.08537">
        <ele>146.7</ele>
        <time>2025-01-21T08:56:11Z</time>
      </trkpt>
      <trkpt lat="48.615" lon="2.08547">
        <ele>146.7</ele>
        <time>2025-01-21T08:56:18Z</time>
      </trkpt>
      <trkpt lat="48.61493" lon="2.08556">
        <ele>146.7</ele>
        <time>2025-01-21T08:56:25Z</time>
      </trkpt>
      <trkpt lat="48.61485" lon="2.08566">
        <ele>146.5</ele>
        <time>2025-01-21T08:56:32Z</time>
      </trkpt>
      <trkpt lat="48.61476" lon="2.08574">
        <ele>146.1</ele>
        <time>2025-01-21T08:56:39Z</time>
      </trkpt>
      <trkpt lat="48.61467" lon="2.08579">
        <ele>145.8</ele>
        <time>2025-01-21T08:56:46Z</time>
      </trkpt>
      <trkpt lat="48.61458" lon="2.08585">
        <ele>145.6</ele>
        <time>2025-01-21T08:56:52Z</time>
      </trkpt>
      <trkpt lat="48.61451" lon="2.08592">
        <ele>145.5</ele>
        <time>2025-01-21T08:56:58Z</time>
      </trkpt>
      <trkpt lat="48.61442" lon="2.08601">
        <ele>145.5</ele>
        <time>2025-01-21T08:57:05Z</time>
      </trkpt>
      <trkpt lat="48.61433" lon="2.08609">
        <ele>145.5</ele>
        <time>2025-01-21T08:57:12Z</time>
      </trkpt>
      <trkpt lat="48.61425" lon="2.08618">
        <ele>145.5</ele>
        <time>2025-01-21T08:57:19Z</time>
      </trkpt>
      <trkpt lat="48.61417" lon="2.08626">
        <ele>145.6</ele>
        <time>2025-01-21T08:57:26Z</time>
      </trkpt>
      <trkpt lat="48.61408" lon="2.08632">
        <ele>145.4</ele>
        <time>2025-01-21T08:57:42Z</time>
      </trkpt>
      <trkpt lat="48.61398" lon="2.08632">
        <ele>145.1</ele>
        <time>2025-01-21T08:57:52Z</time>
      </trkpt>
      <trkpt lat="48.61389" lon="2.08629">
        <ele>144.7</ele>
        <time>2025-01-21T08:58:02Z</time>
      </trkpt>
      <trkpt lat="48.61399" lon="2.0863">
        <ele>145.1</ele>
        <time>2025-01-21T08:58:50Z</time>
      </trkpt>
      <trkpt lat="48.61409" lon="2.08632">
        <ele>145.5</ele>
        <time>2025-01-21T08:58:59Z</time>
      </trkpt>
      <trkpt lat="48.61409" lon="2.08646">
        <ele>146</ele>
        <time>2025-01-21T09:02:07Z</time>
      </trkpt>
      <trkpt lat="48.61404" lon="2.0866">
        <ele>146.3</ele>
        <time>2025-01-21T09:02:14Z</time>
      </trkpt>
      <trkpt lat="48.61399" lon="2.08671">
        <ele>146.4</ele>
        <time>2025-01-21T09:02:20Z</time>
      </trkpt>
      <trkpt lat="48.61394" lon="2.08682">
        <ele>146.6</ele>
        <time>2025-01-21T09:02:26Z</time>
      </trkpt>
      <trkpt lat="48.61388" lon="2.08695">
        <ele>147</ele>
        <time>2025-01-21T09:02:33Z</time>
      </trkpt>
      <trkpt lat="48.61383" lon="2.08708">
        <ele>147</ele>
        <time>2025-01-21T09:02:40Z</time>
      </trkpt>
      <trkpt lat="48.61378" lon="2.08721">
        <ele>147</ele>
        <time>2025-01-21T09:02:47Z</time>
      </trkpt>
      <trkpt lat="48.61374" lon="2.08736">
        <ele>146.7</ele>
        <time>2025-01-21T09:02:54Z</time>
      </trkpt>
      <trkpt lat="48.61369" lon="2.0875">
        <ele>146.3</ele>
        <time>2025-01-21T09:03:01Z</time>
      </trkpt>
      <trkpt lat="48.61366" lon="2.08763">
        <ele>145.7</ele>
        <time>2025-01-21T09:03:07Z</time>
      </trkpt>
      <trkpt lat="48.61363" lon="2.08776">
        <ele>145.1</ele>
        <time>2025-01-21T09:03:13Z</time>
      </trkpt>
      <trkpt lat="48.61361" lon="2.0879">
        <ele>144.1</ele>
        <time>2025-01-21T09:03:19Z</time>
      </trkpt>
      <trkpt lat="48.61359" lon="2.08804">
        <ele>143.1</ele>
        <time>2025-01-21T09:03:25Z</time>
      </trkpt>
      <trkpt lat="48.61358" lon="2.08818">
        <ele>142.6</ele>
        <time>2025-01-21T09:03:31Z</time>
      </trkpt>
      <trkpt lat="48.61359" lon="2.08834">
        <ele>142.1</ele>
        <time>2025-01-21T09:03:38Z</time>
      </trkpt>
      <trkpt lat="48.6136" lon="2.08848">
        <ele>142</ele>
        <time>2025-01-21T09:03:44Z</time>
      </trkpt>
      <trkpt lat="48.61362" lon="2.08861">
        <ele>142</ele>
        <time>2025-01-21T09:03:50Z</time>
      </trkpt>
      <trkpt lat="48.61364" lon="2.08874">
        <ele>141.5</ele>
        <time>2025-01-21T09:03:57Z</time>
      </trkpt>
      <trkpt lat="48.61366" lon="2.0889">
        <ele>141</ele>
        <time>2025-01-21T09:04:05Z</time>
      </trkpt>
      <trkpt lat="48.61369" lon="2.08904">
        <ele>140.5</ele>
        <time>2025-01-21T09:04:11Z</time>
      </trkpt>
      <trkpt lat="48.61371" lon="2.08919">
        <ele>140</ele>
        <time>2025-01-21T09:04:18Z</time>
      </trkpt>
      <trkpt lat="48.61373" lon="2.08933">
        <ele>139.8</ele>
        <time>2025-01-21T09:04:24Z</time>
      </trkpt>
      <trkpt lat="48.61373" lon="2.08947">
        <ele>139.5</ele>
        <time>2025-01-21T09:04:30Z</time>
      </trkpt>
      <trkpt lat="48.61369" lon="2.0896">
        <ele>139.3</ele>
        <time>2025-01-21T09:04:36Z</time>
      </trkpt>
      <trkpt lat="48.61364" lon="2.08972">
        <ele>139</ele>
        <time>2025-01-21T09:04:42Z</time>
      </trkpt>
      <trkpt lat="48.61359" lon="2.08985">
        <ele>138.5</ele>
        <time>2025-01-21T09:04:48Z</time>
      </trkpt>
      <trkpt lat="48.61355" lon="2.08998">
        <ele>138.1</ele>
        <time>2025-01-21T09:04:54Z</time>
      </trkpt>
      <trkpt lat="48.61352" lon="2.09011">
        <ele>138</ele>
        <time>2025-01-21T09:05:00Z</time>
      </trkpt>
      <trkpt lat="48.61351" lon="2.09025">
        <ele>138</ele>
        <time>2025-01-21T09:05:06Z</time>
      </trkpt>
      <trkpt lat="48.61352" lon="2.09039">
        <ele>137.6</ele>
        <time>2025-01-21T09:05:12Z</time>
      </trkpt>
      <trkpt lat="48.61354" lon="2.09052">
        <ele>137.1</ele>
        <time>2025-01-21T09:05:18Z</time>
      </trkpt>
      <trkpt lat="48.61356" lon="2.09066">
        <ele>136.9</ele>
        <time>2025-01-21T09:05:24Z</time>
      </trkpt>
      <trkpt lat="48.61357" lon="2.09081">
        <ele>136.9</ele>
        <time>2025-01-21T09:05:31Z</time>
      </trkpt>
      <trkpt lat="48.61358" lon="2.09095">
        <ele>136.5</ele>
        <time>2025-01-21T09:05:37Z</time>
      </trkpt>
      <trkpt lat="48.6136" lon="2.09108">
        <ele>136.1</ele>
        <time>2025-01-21T09:05:43Z</time>
      </trkpt>
      <trkpt lat="48.61361" lon="2.09122">
        <ele>136</ele>
        <time>2025-01-21T09:05:49Z</time>
      </trkpt>
      <trkpt lat="48.61363" lon="2.09136">
        <ele>136</ele>
        <time>2025-01-21T09:05:55Z</time>
      </trkpt>
      <trkpt lat="48.61365" lon="2.0915">
        <ele>135.7</ele>
        <time>2025-01-21T09:06:01Z</time>
      </trkpt>
      <trkpt lat="48.61367" lon="2.09163">
        <ele>135.3</ele>
        <time>2025-01-21T09:06:07Z</time>
      </trkpt>
      <trkpt lat="48.61368" lon="2.09179">
        <ele>135.1</ele>
        <time>2025-01-21T09:06:14Z</time>
      </trkpt>
      <trkpt lat="48.61371" lon="2.09193">
        <ele>135</ele>
        <time>2025-01-21T09:06:21Z</time>
      </trkpt>
      <trkpt lat="48.61372" lon="2.09208">
        <ele>134.5</ele>
        <time>2025-01-21T09:06:28Z</time>
      </trkpt>
      <trkpt lat="48.61381" lon="2.09213">
        <ele>134.3</ele>
        <time>2025-01-21T09:06:47Z</time>
      </trkpt>
      <trkpt lat="48.6139" lon="2.09208">
        <ele>134.5</ele>
        <time>2025-01-21T09:06:55Z</time>
      </trkpt>
      <trkpt lat="48.61398" lon="2.09204">
        <ele>134.8</ele>
        <time>2025-01-21T09:07:02Z</time>
      </trkpt>
      <trkpt lat="48.61407" lon="2.09201">
        <ele>134.9</ele>
        <time>2025-01-21T09:07:08Z</time>
      </trkpt>
      <trkpt lat="48.61416" lon="2.09197">
        <ele>135</ele>
        <time>2025-01-21T09:07:15Z</time>
      </trkpt>
      <trkpt lat="48.61425" lon="2.09195">
        <ele>135.3</ele>
        <time>2025-01-21T09:07:22Z</time>
      </trkpt>
      <trkpt lat="48.61436" lon="2.09193">
        <ele>135.7</ele>
        <time>2025-01-21T09:07:29Z</time>
      </trkpt>
      <trkpt lat="48.61446" lon="2.09193">
        <ele>136</ele>
        <time>2025-01-21T09:07:36Z</time>
      </trkpt>
      <trkpt lat="48.61456" lon="2.09194">
        <ele>136</ele>
        <time>2025-01-21T09:07:43Z</time>
      </trkpt>
      <trkpt lat="48.61466" lon="2.09195">
        <ele>136</ele>
        <time>2025-01-21T09:07:50Z</time>
      </trkpt>
      <trkpt lat="48.61477" lon="2.09196">
        <ele>136.1</ele>
        <time>2025-01-21T09:07:57Z</time>
      </trkpt>
      <trkpt lat="48.61487" lon="2.09198">
        <ele>136.4</ele>
        <time>2025-01-21T09:08:04Z</time>
      </trkpt>
      <trkpt lat="48.61497" lon="2.09199">
        <ele>136.7</ele>
        <time>2025-01-21T09:08:11Z</time>
      </trkpt>
      <trkpt lat="48.61507" lon="2.09201">
        <ele>136.8</ele>
        <time>2025-01-21T09:08:18Z</time>
      </trkpt>
      <trkpt lat="48.61517" lon="2.09202">
        <ele>136.9</ele>
        <time>2025-01-21T09:08:25Z</time>
      </trkpt>
      <trkpt lat="48.61526" lon="2.09204">
        <ele>137</ele>
        <time>2025-01-21T09:08:32Z</time>
      </trkpt>
      <trkpt lat="48.61535" lon="2.09201">
        <ele>137.5</ele>
        <time>2025-01-21T09:08:40Z</time>
      </trkpt>
      <trkpt lat="48.61545" lon="2.09201">
        <ele>138.1</ele>
        <time>2025-01-21T09:08:49Z</time>
      </trkpt>
      <trkpt lat="48.61555" lon="2.09202">
        <ele>138.7</ele>
        <time>2025-01-21T09:08:56Z</time>
      </trkpt>
      <trkpt lat="48.61565" lon="2.09206">
        <ele>139.1</ele>
        <time>2025-01-21T09:09:03Z</time>
      </trkpt>
      <trkpt lat="48.61574" lon="2.09208">
        <ele>139.5</ele>
        <time>2025-01-21T09:09:09Z</time>
      </trkpt>
      <trkpt lat="48.61584" lon="2.0921">
        <ele>140.1</ele>
        <time>2025-01-21T09:09:16Z</time>
      </trkpt>
      <trkpt lat="48.61593" lon="2.09213">
        <ele>140.7</ele>
        <time>2025-01-21T09:09:22Z</time>
      </trkpt>
      <trkpt lat="48.61602" lon="2.09219">
        <ele>141.3</ele>
        <time>2025-01-21T09:09:29Z</time>
      </trkpt>
      <trkpt lat="48.6161" lon="2.09224">
        <ele>141.9</ele>
        <time>2025-01-21T09:09:35Z</time>
      </trkpt>
      <trkpt lat="48.6162" lon="2.09229">
        <ele>142.4</ele>
        <time>2025-01-21T09:09:42Z</time>
      </trkpt>
      <trkpt lat="48.61629" lon="2.09235">
        <ele>142.9</ele>
        <time>2025-01-21T09:09:48Z</time>
      </trkpt>
      <trkpt lat="48.61637" lon="2.09242">
        <ele>143.6</ele>
        <time>2025-01-21T09:09:55Z</time>
      </trkpt>
      <trkpt lat="48.61646" lon="2.09248">
        <ele>143.9</ele>
        <time>2025-01-21T09:10:02Z</time>
      </trkpt>
      <trkpt lat="48.61655" lon="2.09251">
        <ele>144</ele>
        <time>2025-01-21T09:10:09Z</time>
      </trkpt>
      <trkpt lat="48.61664" lon="2.09257">
        <ele>144</ele>
        <time>2025-01-21T09:10:16Z</time>
      </trkpt>
      <trkpt lat="48.61674" lon="2.09262">
        <ele>144</ele>
        <time>2025-01-21T09:10:24Z</time>
      </trkpt>
      <trkpt lat="48.61684" lon="2.09265">
        <ele>144</ele>
        <time>2025-01-21T09:10:32Z</time>
      </trkpt>
      <trkpt lat="48.61694" lon="2.09268">
        <ele>144</ele>
        <time>2025-01-21T09:10:38Z</time>
      </trkpt>
      <trkpt lat="48.61703" lon="2.09271">
        <ele>144.1</ele>
        <time>2025-01-21T09:10:45Z</time>
      </trkpt>
      <trkpt lat="48.61713" lon="2.09275">
        <ele>144.1</ele>
        <time>2025-01-21T09:10:52Z</time>
      </trkpt>
      <trkpt lat="48.61722" lon="2.09277">
        <ele>144</ele>
        <time>2025-01-21T09:11:00Z</time>
      </trkpt>
      <trkpt lat="48.61732" lon="2.09282">
        <ele>144</ele>
        <time>2025-01-21T09:11:07Z</time>
      </trkpt>
      <trkpt lat="48.61741" lon="2.09289">
        <ele>144</ele>
        <time>2025-01-21T09:11:13Z</time>
      </trkpt>
      <trkpt lat="48.61751" lon="2.09294">
        <ele>144</ele>
        <time>2025-01-21T09:11:20Z</time>
      </trkpt>
      <trkpt lat="48.61761" lon="2.09299">
        <ele>143.7</ele>
        <time>2025-01-21T09:11:27Z</time>
      </trkpt>
      <trkpt lat="48.6177" lon="2.09307">
        <ele>143.3</ele>
        <time>2025-01-21T09:11:34Z</time>
      </trkpt>
      <trkpt lat="48.61778" lon="2.09316">
        <ele>143</ele>
        <time>2025-01-21T09:11:41Z</time>
      </trkpt>
      <trkpt lat="48.61786" lon="2.09325">
        <ele>142.2</ele>
        <time>2025-01-21T09:11:48Z</time>
      </trkpt>
      <trkpt lat="48.61795" lon="2.09331">
        <ele>141.2</ele>
        <time>2025-01-21T09:11:54Z</time>
      </trkpt>
      <trkpt lat="48.61802" lon="2.09342">
        <ele>140.8</ele>
        <time>2025-01-21T09:12:03Z</time>
      </trkpt>
      <trkpt lat="48.6181" lon="2.09353">
        <ele>140.3</ele>
        <time>2025-01-21T09:12:10Z</time>
      </trkpt>
      <trkpt lat="48.61819" lon="2.0936">
        <ele>139.6</ele>
        <time>2025-01-21T09:12:17Z</time>
      </trkpt>
      <trkpt lat="48.61827" lon="2.09365">
        <ele>138.9</ele>
        <time>2025-01-21T09:12:23Z</time>
      </trkpt>
      <trkpt lat="48.61837" lon="2.09372">
        <ele>138.1</ele>
        <time>2025-01-21T09:12:30Z</time>
      </trkpt>
      <trkpt lat="48.61846" lon="2.09377">
        <ele>137.4</ele>
        <time>2025-01-21T09:12:36Z</time>
      </trkpt>
      <trkpt lat="48.61855" lon="2.09382">
        <ele>136.6</ele>
        <time>2025-01-21T09:12:43Z</time>
      </trkpt>
      <trkpt lat="48.61864" lon="2.09387">
        <ele>135.9</ele>
        <time>2025-01-21T09:12:49Z</time>
      </trkpt>
      <trkpt lat="48.61872" lon="2.09394">
        <ele>135.7</ele>
        <time>2025-01-21T09:12:56Z</time>
      </trkpt>
      <trkpt lat="48.61881" lon="2.09399">
        <ele>135.4</ele>
        <time>2025-01-21T09:13:02Z</time>
      </trkpt>
      <trkpt lat="48.61889" lon="2.09406">
        <ele>135</ele>
        <time>2025-01-21T09:13:08Z</time>
      </trkpt>
      <trkpt lat="48.61898" lon="2.09411">
        <ele>134.7</ele>
        <time>2025-01-21T09:13:13Z</time>
      </trkpt>
      <trkpt lat="48.61905" lon="2.09418">
        <ele>134.4</ele>
        <time>2025-01-21T09:13:19Z</time>
      </trkpt>
      <trkpt lat="48.61912" lon="2.09427">
        <ele>133.8</ele>
        <time>2025-01-21T09:13:26Z</time>
      </trkpt>
      <trkpt lat="48.61921" lon="2.09435">
        <ele>133.2</ele>
        <time>2025-01-21T09:13:33Z</time>
      </trkpt>
      <trkpt lat="48.61929" lon="2.09443">
        <ele>132.6</ele>
        <time>2025-01-21T09:13:40Z</time>
      </trkpt>
      <trkpt lat="48.61938" lon="2.09449">
        <ele>132.1</ele>
        <time>2025-01-21T09:13:47Z</time>
      </trkpt>
      <trkpt lat="48.61946" lon="2.09455">
        <ele>131.7</ele>
        <time>2025-01-21T09:13:53Z</time>
      </trkpt>
      <trkpt lat="48.61955" lon="2.09461">
        <ele>131.8</ele>
        <time>2025-01-21T09:14:00Z</time>
      </trkpt>
      <trkpt lat="48.61964" lon="2.09469">
        <ele>131.8</ele>
        <time>2025-01-21T09:14:07Z</time>
      </trkpt>
      <trkpt lat="48.61973" lon="2.09478">
        <ele>131.8</ele>
        <time>2025-01-21T09:14:14Z</time>
      </trkpt>
      <trkpt lat="48.61981" lon="2.09487">
        <ele>131.9</ele>
        <time>2025-01-21T09:14:21Z</time>
      </trkpt>
      <trkpt lat="48.61988" lon="2.09497">
        <ele>132.2</ele>
        <time>2025-01-21T09:14:28Z</time>
      </trkpt>
      <trkpt lat="48.61994" lon="2.09509">
        <ele>132.3</ele>
        <time>2025-01-21T09:14:35Z</time>
      </trkpt>
      <trkpt lat="48.62001" lon="2.09521">
        <ele>132.3</ele>
        <time>2025-01-21T09:14:41Z</time>
      </trkpt>
      <trkpt lat="48.62007" lon="2.0953">
        <ele>132.5</ele>
        <time>2025-01-21T09:14:47Z</time>
      </trkpt>
      <trkpt lat="48.62015" lon="2.09537">
        <ele>133.2</ele>
        <time>2025-01-21T09:14:54Z</time>
      </trkpt>
      <trkpt lat="48.62022" lon="2.09525">
        <ele>133.6</ele>
        <time>2025-01-21T09:15:02Z</time>
      </trkpt>
      <trkpt lat="48.62026" lon="2.09513">
        <ele>133.9</ele>
        <time>2025-01-21T09:15:08Z</time>
      </trkpt>
      <trkpt lat="48.62032" lon="2.09501">
        <ele>134.3</ele>
        <time>2025-01-21T09:15:14Z</time>
      </trkpt>
      <trkpt lat="48.62037" lon="2.09489">
        <ele>134.7</ele>
        <time>2025-01-21T09:15:21Z</time>
      </trkpt>
      <trkpt lat="48.62042" lon="2.09478">
        <ele>135.1</ele>
        <time>2025-01-21T09:15:28Z</time>
      </trkpt>
      <trkpt lat="48.62048" lon="2.09466">
        <ele>135.5</ele>
        <time>2025-01-21T09:15:34Z</time>
      </trkpt>
      <trkpt lat="48.62054" lon="2.09455">
        <ele>135.9</ele>
        <time>2025-01-21T09:15:40Z</time>
      </trkpt>
      <trkpt lat="48.6206" lon="2.09443">
        <ele>136</ele>
        <time>2025-01-21T09:15:47Z</time>
      </trkpt>
      <trkpt lat="48.62066" lon="2.09432">
        <ele>136.2</ele>
        <time>2025-01-21T09:15:53Z</time>
      </trkpt>
      <trkpt lat="48.62072" lon="2.0942">
        <ele>136.5</ele>
        <time>2025-01-21T09:16:00Z</time>
      </trkpt>
      <trkpt lat="48.62077" lon="2.09408">
        <ele>137.1</ele>
        <time>2025-01-21T09:16:07Z</time>
      </trkpt>
      <trkpt lat="48.62082" lon="2.09397">
        <ele>137.7</ele>
        <time>2025-01-21T09:16:14Z</time>
      </trkpt>
      <trkpt lat="48.62088" lon="2.09385">
        <ele>137.9</ele>
        <time>2025-01-21T09:16:21Z</time>
      </trkpt>
      <trkpt lat="48.62094" lon="2.09373">
        <ele>138.2</ele>
        <time>2025-01-21T09:16:28Z</time>
      </trkpt>
      <trkpt lat="48.62099" lon="2.09362">
        <ele>138.4</ele>
        <time>2025-01-21T09:16:34Z</time>
      </trkpt>
      <trkpt lat="48.62105" lon="2.09349">
        <ele>138.7</ele>
        <time>2025-01-21T09:16:41Z</time>
      </trkpt>
      <trkpt lat="48.62111" lon="2.09337">
        <ele>138.9</ele>
        <time>2025-01-21T09:16:48Z</time>
      </trkpt>
      <trkpt lat="48.62116" lon="2.09326">
        <ele>139.1</ele>
        <time>2025-01-21T09:16:54Z</time>
      </trkpt>
      <trkpt lat="48.62122" lon="2.09313">
        <ele>139.4</ele>
        <time>2025-01-21T09:17:01Z</time>
      </trkpt>
      <trkpt lat="48.62127" lon="2.09301">
        <ele>139.4</ele>
        <time>2025-01-21T09:17:09Z</time>
      </trkpt>
      <trkpt lat="48.62131" lon="2.09288">
        <ele>139.3</ele>
        <time>2025-01-21T09:17:17Z</time>
      </trkpt>
      <trkpt lat="48.62137" lon="2.09277">
        <ele>139.1</ele>
        <time>2025-01-21T09:17:24Z</time>
      </trkpt>
      <trkpt lat="48.62143" lon="2.09265">
        <ele>138.9</ele>
        <time>2025-01-21T09:17:31Z</time>
      </trkpt>
      <trkpt lat="48.62149" lon="2.09253">
        <ele>139</ele>
        <time>2025-01-21T09:17:38Z</time>
      </trkpt>
      <trkpt lat="48.62154" lon="2.09241">
        <ele>138.8</ele>
        <time>2025-01-21T09:17:46Z</time>
      </trkpt>
      <trkpt lat="48.62159" lon="2.09229">
        <ele>138.4</ele>
        <time>2025-01-21T09:17:53Z</time>
      </trkpt>
      <trkpt lat="48.62164" lon="2.09216">
        <ele>137.9</ele>
        <time>2025-01-21T09:18:00Z</time>
      </trkpt>
      <trkpt lat="48.62169" lon="2.09203">
        <ele>137.3</ele>
        <time>2025-01-21T09:18:07Z</time>
      </trkpt>
      <trkpt lat="48.62178" lon="2.09203">
        <ele>137.3</ele>
        <time>2025-01-21T09:23:21Z</time>
      </trkpt>
      <trkpt lat="48.62187" lon="2.09208">
        <ele>137.5</ele>
        <time>2025-01-21T09:23:28Z</time>
      </trkpt>
      <trkpt lat="48.62193" lon="2.09219">
        <ele>137.9</ele>
        <time>2025-01-21T09:23:35Z</time>
      </trkpt>
      <trkpt lat="48.62201" lon="2.09229">
        <ele>137.8</ele>
        <time>2025-01-21T09:23:43Z</time>
      </trkpt>
      <trkpt lat="48.62209" lon="2.09237">
        <ele>137.5</ele>
        <time>2025-01-21T09:23:50Z</time>
      </trkpt>
      <trkpt lat="48.62217" lon="2.09247">
        <ele>137.2</ele>
        <time>2025-01-21T09:23:57Z</time>
      </trkpt>
      <trkpt lat="48.62225" lon="2.09254">
        <ele>136.9</ele>
        <time>2025-01-21T09:25:11Z</time>
      </trkpt>
      <trkpt lat="48.62232" lon="2.09262">
        <ele>136.5</ele>
        <time>2025-01-21T09:25:23Z</time>
      </trkpt>
      <trkpt lat="48.62241" lon="2.09268">
        <ele>135.9</ele>
        <time>2025-01-21T09:25:35Z</time>
      </trkpt>
      <trkpt lat="48.6225" lon="2.09274">
        <ele>135.2</ele>
        <time>2025-01-21T09:26:04Z</time>
      </trkpt>
      <trkpt lat="48.62256" lon="2.09285">
        <ele>134.7</ele>
        <time>2025-01-21T09:26:18Z</time>
      </trkpt>
      <trkpt lat="48.62265" lon="2.09294">
        <ele>134.2</ele>
        <time>2025-01-21T09:27:00Z</time>
      </trkpt>
      <trkpt lat="48.62271" lon="2.09304">
        <ele>133.5</ele>
        <time>2025-01-21T09:27:07Z</time>
      </trkpt>
      <trkpt lat="48.62278" lon="2.09312">
        <ele>133</ele>
        <time>2025-01-21T09:27:15Z</time>
      </trkpt>
      <trkpt lat="48.62286" lon="2.09321">
        <ele>132.6</ele>
        <time>2025-01-21T09:27:23Z</time>
      </trkpt>
      <trkpt lat="48.62293" lon="2.0933">
        <ele>132</ele>
        <time>2025-01-21T09:27:31Z</time>
      </trkpt>
      <trkpt lat="48.62301" lon="2.09339">
        <ele>131.3</ele>
        <time>2025-01-21T09:27:39Z</time>
      </trkpt>
      <trkpt lat="48.62309" lon="2.09348">
        <ele>130.9</ele>
        <time>2025-01-21T09:27:46Z</time>
      </trkpt>
      <trkpt lat="48.62317" lon="2.09356">
        <ele>130.6</ele>
        <time>2025-01-21T09:27:53Z</time>
      </trkpt>
      <trkpt lat="48.62324" lon="2.09365">
        <ele>130.3</ele>
        <time>2025-01-21T09:28:00Z</time>
      </trkpt>
      <trkpt lat="48.62332" lon="2.09374">
        <ele>130</ele>
        <time>2025-01-21T09:28:07Z</time>
      </trkpt>
      <trkpt lat="48.6234" lon="2.09381">
        <ele>129.7</ele>
        <time>2025-01-21T09:28:13Z</time>
      </trkpt>
      <trkpt lat="48.62348" lon="2.0939">
        <ele>129.5</ele>
        <time>2025-01-21T09:28:20Z</time>
      </trkpt>
      <trkpt lat="48.62357" lon="2.09399">
        <ele>129.2</ele>
        <time>2025-01-21T09:28:27Z</time>
      </trkpt>
      <trkpt lat="48.62364" lon="2.09408">
        <ele>128.9</ele>
        <time>2025-01-21T09:28:34Z</time>
      </trkpt>
      <trkpt lat="48.62372" lon="2.09417">
        <ele>128.6</ele>
        <time>2025-01-21T09:28:41Z</time>
      </trkpt>
      <trkpt lat="48.6238" lon="2.09427">
        <ele>128.3</ele>
        <time>2025-01-21T09:28:48Z</time>
      </trkpt>
      <trkpt lat="48.62389" lon="2.09434">
        <ele>128</ele>
        <time>2025-01-21T09:28:54Z</time>
      </trkpt>
      <trkpt lat="48.62397" lon="2.09442">
        <ele>127.7</ele>
        <time>2025-01-21T09:29:00Z</time>
      </trkpt>
      <trkpt lat="48.62405" lon="2.09449">
        <ele>127.4</ele>
        <time>2025-01-21T09:29:06Z</time>
      </trkpt>
      <trkpt lat="48.62413" lon="2.09457">
        <ele>127.1</ele>
        <time>2025-01-21T09:29:12Z</time>
      </trkpt>
      <trkpt lat="48.62421" lon="2.09463">
        <ele>126.7</ele>
        <time>2025-01-21T09:29:18Z</time>
      </trkpt>
      <trkpt lat="48.62429" lon="2.09471">
        <ele>126.1</ele>
        <time>2025-01-21T09:29:24Z</time>
      </trkpt>
      <trkpt lat="48.62437" lon="2.09479">
        <ele>125.6</ele>
        <time>2025-01-21T09:29:30Z</time>
      </trkpt>
      <trkpt lat="48.62445" lon="2.09487">
        <ele>125</ele>
        <time>2025-01-21T09:29:36Z</time>
      </trkpt>
      <trkpt lat="48.62453" lon="2.09495">
        <ele>124.8</ele>
        <time>2025-01-21T09:29:43Z</time>
      </trkpt>
      <trkpt lat="48.62461" lon="2.09504">
        <ele>124.4</ele>
        <time>2025-01-21T09:29:50Z</time>
      </trkpt>
      <trkpt lat="48.62469" lon="2.09513">
        <ele>124.1</ele>
        <time>2025-01-21T09:29:57Z</time>
      </trkpt>
      <trkpt lat="48.62478" lon="2.0952">
        <ele>123.8</ele>
        <time>2025-01-21T09:30:04Z</time>
      </trkpt>
      <trkpt lat="48.62486" lon="2.09529">
        <ele>123.5</ele>
        <time>2025-01-21T09:30:11Z</time>
      </trkpt>
      <trkpt lat="48.62495" lon="2.09538">
        <ele>123.2</ele>
        <time>2025-01-21T09:30:18Z</time>
      </trkpt>
      <trkpt lat="48.62503" lon="2.09544">
        <ele>122.9</ele>
        <time>2025-01-21T09:30:25Z</time>
      </trkpt>
      <trkpt lat="48.62511" lon="2.09554">
        <ele>122.6</ele>
        <time>2025-01-21T09:30:32Z</time>
      </trkpt>
      <trkpt lat="48.62518" lon="2.09563">
        <ele>122.1</ele>
        <time>2025-01-21T09:30:39Z</time>
      </trkpt>
      <trkpt lat="48.62527" lon="2.09572">
        <ele>121.4</ele>
        <time>2025-01-21T09:30:46Z</time>
      </trkpt>
      <trkpt lat="48.62534" lon="2.0958">
        <ele>120.9</ele>
        <time>2025-01-21T09:30:52Z</time>
      </trkpt>
      <trkpt lat="48.62541" lon="2.09589">
        <ele>120.5</ele>
        <time>2025-01-21T09:30:59Z</time>
      </trkpt>
      <trkpt lat="48.62549" lon="2.09598">
        <ele>120.2</ele>
        <time>2025-01-21T09:31:06Z</time>
      </trkpt>
      <trkpt lat="48.62556" lon="2.09607">
        <ele>120</ele>
        <time>2025-01-21T09:31:13Z</time>
      </trkpt>
      <trkpt lat="48.62564" lon="2.09617">
        <ele>119.7</ele>
        <time>2025-01-21T09:31:20Z</time>
      </trkpt>
      <trkpt lat="48.62572" lon="2.09627">
        <ele>119.4</ele>
        <time>2025-01-21T09:31:28Z</time>
      </trkpt>
      <trkpt lat="48.6258" lon="2.09637">
        <ele>119.1</ele>
        <time>2025-01-21T09:31:36Z</time>
      </trkpt>
      <trkpt lat="48.62587" lon="2.09647">
        <ele>118.9</ele>
        <time>2025-01-21T09:31:43Z</time>
      </trkpt>
      <trkpt lat="48.62595" lon="2.09656">
        <ele>118.6</ele>
        <time>2025-01-21T09:31:50Z</time>
      </trkpt>
      <trkpt lat="48.62603" lon="2.09666">
        <ele>118.3</ele>
        <time>2025-01-21T09:31:57Z</time>
      </trkpt>
      <trkpt lat="48.6261" lon="2.09675">
        <ele>117.7</ele>
        <time>2025-01-21T09:32:04Z</time>
      </trkpt>
      <trkpt lat="48.62618" lon="2.09685">
        <ele>117.1</ele>
        <time>2025-01-21T09:32:11Z</time>
      </trkpt>
      <trkpt lat="48.62625" lon="2.09695">
        <ele>116.5</ele>
        <time>2025-01-21T09:32:18Z</time>
      </trkpt>
      <trkpt lat="48.62633" lon="2.09704">
        <ele>116.2</ele>
        <time>2025-01-21T09:32:25Z</time>
      </trkpt>
      <trkpt lat="48.62642" lon="2.09712">
        <ele>115.9</ele>
        <time>2025-01-21T09:32:32Z</time>
      </trkpt>
      <trkpt lat="48.6265" lon="2.09722">
        <ele>115.6</ele>
        <time>2025-01-21T09:32:39Z</time>
      </trkpt>
      <trkpt lat="48.62659" lon="2.09729">
        <ele>115</ele>
        <time>2025-01-21T09:32:46Z</time>
      </trkpt>
      <trkpt lat="48.62666" lon="2.09739">
        <ele>114.4</ele>
        <time>2025-01-21T09:32:53Z</time>
      </trkpt>
      <trkpt lat="48.62675" lon="2.09748">
        <ele>114</ele>
        <time>2025-01-21T09:33:01Z</time>
      </trkpt>
      <trkpt lat="48.62683" lon="2.09754">
        <ele>113.9</ele>
        <time>2025-01-21T09:33:08Z</time>
      </trkpt>
      <trkpt lat="48.62689" lon="2.09743">
        <ele>114</ele>
        <time>2025-01-21T09:34:49Z</time>
      </trkpt>
      <trkpt lat="48.62692" lon="2.0973">
        <ele>114.1</ele>
        <time>2025-01-21T09:34:57Z</time>
      </trkpt>
      <trkpt lat="48.62698" lon="2.09719">
        <ele>114</ele>
        <time>2025-01-21T09:35:05Z</time>
      </trkpt>
      <trkpt lat="48.62703" lon="2.09707">
        <ele>114.2</ele>
        <time>2025-01-21T09:35:12Z</time>
      </trkpt>
      <trkpt lat="48.62706" lon="2.09694">
        <ele>114.6</ele>
        <time>2025-01-21T09:35:22Z</time>
      </trkpt>
      <trkpt lat="48.62712" lon="2.09682">
        <ele>114.8</ele>
        <time>2025-01-21T09:35:29Z</time>
      </trkpt>
      <trkpt lat="48.62718" lon="2.09671">
        <ele>115</ele>
        <time>2025-01-21T09:35:36Z</time>
      </trkpt>
      <trkpt lat="48.62724" lon="2.0966">
        <ele>114.9</ele>
        <time>2025-01-21T09:35:43Z</time>
      </trkpt>
      <trkpt lat="48.62729" lon="2.09648">
        <ele>114.8</ele>
        <time>2025-01-21T09:35:50Z</time>
      </trkpt>
      <trkpt lat="48.62734" lon="2.09636">
        <ele>114.6</ele>
        <time>2025-01-21T09:35:57Z</time>
      </trkpt>
      <trkpt lat="48.62738" lon="2.09623">
        <ele>114.8</ele>
        <time>2025-01-21T09:36:04Z</time>
      </trkpt>
      <trkpt lat="48.6274" lon="2.09609">
        <ele>115</ele>
        <time>2025-01-21T09:36:12Z</time>
      </trkpt>
      <trkpt lat="48.62742" lon="2.09594">
        <ele>115.2</ele>
        <time>2025-01-21T09:36:20Z</time>
      </trkpt>
      <trkpt lat="48.62742" lon="2.09579">
        <ele>115.3</ele>
        <time>2025-01-21T09:36:28Z</time>
      </trkpt>
      <trkpt lat="48.62741" lon="2.09565">
        <ele>115.3</ele>
        <time>2025-01-21T09:36:35Z</time>
      </trkpt>
      <trkpt lat="48.6274" lon="2.09551">
        <ele>115.4</ele>
        <time>2025-01-21T09:36:42Z</time>
      </trkpt>
      <trkpt lat="48.62738" lon="2.09537">
        <ele>115.4</ele>
        <time>2025-01-21T09:36:50Z</time>
      </trkpt>
      <trkpt lat="48.62735" lon="2.09523">
        <ele>115.6</ele>
        <time>2025-01-21T09:36:58Z</time>
      </trkpt>
      <trkpt lat="48.6273" lon="2.0951">
        <ele>115.7</ele>
        <time>2025-01-21T09:37:05Z</time>
      </trkpt>
      <trkpt lat="48.62725" lon="2.09499">
        <ele>115.9</ele>
        <time>2025-01-21T09:37:12Z</time>
      </trkpt>
      <trkpt lat="48.62717" lon="2.09489">
        <ele>116.2</ele>
        <time>2025-01-21T09:37:20Z</time>
      </trkpt>
      <trkpt lat="48.62711" lon="2.09479">
        <ele>116.4</ele>
        <time>2025-01-21T09:37:28Z</time>
      </trkpt>
      <trkpt lat="48.62704" lon="2.09469">
        <ele>116.7</ele>
        <time>2025-01-21T09:37:35Z</time>
      </trkpt>
      <trkpt lat="48.62698" lon="2.09458">
        <ele>116.9</ele>
        <time>2025-01-21T09:37:42Z</time>
      </trkpt>
      <trkpt lat="48.62693" lon="2.09445">
        <ele>117.1</ele>
        <time>2025-01-21T09:37:50Z</time>
      </trkpt>
      <trkpt lat="48.62688" lon="2.09432">
        <ele>117.2</ele>
        <time>2025-01-21T09:37:59Z</time>
      </trkpt>
      <trkpt lat="48.62682" lon="2.0942">
        <ele>117.5</ele>
        <time>2025-01-21T09:38:07Z</time>
      </trkpt>
      <trkpt lat="48.62677" lon="2.09408">
        <ele>117.6</ele>
        <time>2025-01-21T09:38:15Z</time>
      </trkpt>
      <trkpt lat="48.62671" lon="2.09395">
        <ele>117.8</ele>
        <time>2025-01-21T09:38:22Z</time>
      </trkpt>
      <trkpt lat="48.62667" lon="2.09382">
        <ele>118</ele>
        <time>2025-01-21T09:38:30Z</time>
      </trkpt>
      <trkpt lat="48.62661" lon="2.09369">
        <ele>118.2</ele>
        <time>2025-01-21T09:38:38Z</time>
      </trkpt>
      <trkpt lat="48.62657" lon="2.09356">
        <ele>118.4</ele>
        <time>2025-01-21T09:38:45Z</time>
      </trkpt>
      <trkpt lat="48.62652" lon="2.09343">
        <ele>118.5</ele>
        <time>2025-01-21T09:38:53Z</time>
      </trkpt>
      <trkpt lat="48.62647" lon="2.09329">
        <ele>118.7</ele>
        <time>2025-01-21T09:39:01Z</time>
      </trkpt>
      <trkpt lat="48.62644" lon="2.09315">
        <ele>118.8</ele>
        <time>2025-01-21T09:39:08Z</time>
      </trkpt>
      <trkpt lat="48.62641" lon="2.09302">
        <ele>118.9</ele>
        <time>2025-01-21T09:39:15Z</time>
      </trkpt>
      <trkpt lat="48.62641" lon="2.09288">
        <ele>119</ele>
        <time>2025-01-21T09:39:22Z</time>
      </trkpt>
      <trkpt lat="48.62642" lon="2.09274">
        <ele>119</ele>
        <time>2025-01-21T09:39:29Z</time>
      </trkpt>
      <trkpt lat="48.6264" lon="2.0926">
        <ele>119</ele>
        <time>2025-01-21T09:39:36Z</time>
      </trkpt>
      <trkpt lat="48.62636" lon="2.09247">
        <ele>119.2</ele>
        <time>2025-01-21T09:39:43Z</time>
      </trkpt>
      <trkpt lat="48.62633" lon="2.09233">
        <ele>119.3</ele>
        <time>2025-01-21T09:39:50Z</time>
      </trkpt>
      <trkpt lat="48.6263" lon="2.0922">
        <ele>119.4</ele>
        <time>2025-01-21T09:39:57Z</time>
      </trkpt>
      <trkpt lat="48.62628" lon="2.09205">
        <ele>119.8</ele>
        <time>2025-01-21T09:40:04Z</time>
      </trkpt>
      <trkpt lat="48.62626" lon="2.09191">
        <ele>120</ele>
        <time>2025-01-21T09:40:11Z</time>
      </trkpt>
      <trkpt lat="48.62624" lon="2.09176">
        <ele>120</ele>
        <time>2025-01-21T09:40:18Z</time>
      </trkpt>
      <trkpt lat="48.62623" lon="2.09161">
        <ele>120.2</ele>
        <time>2025-01-21T09:40:26Z</time>
      </trkpt>
      <trkpt lat="48.62621" lon="2.09146">
        <ele>120.7</ele>
        <time>2025-01-21T09:40:34Z</time>
      </trkpt>
      <trkpt lat="48.62619" lon="2.09132">
        <ele>121.2</ele>
        <time>2025-01-21T09:40:44Z</time>
      </trkpt>
      <trkpt lat="48.62617" lon="2.09118">
        <ele>121.8</ele>
        <time>2025-01-21T09:41:19Z</time>
      </trkpt>
      <trkpt lat="48.62612" lon="2.09107">
        <ele>122</ele>
        <time>2025-01-21T09:41:28Z</time>
      </trkpt>
      <trkpt lat="48.62604" lon="2.09098">
        <ele>121.9</ele>
        <time>2025-01-21T09:41:36Z</time>
      </trkpt>
      <trkpt lat="48.62597" lon="2.09088">
        <ele>121.9</ele>
        <time>2025-01-21T09:41:43Z</time>
      </trkpt>
      <trkpt lat="48.62589" lon="2.09079">
        <ele>122.2</ele>
        <time>2025-01-21T09:41:50Z</time>
      </trkpt>
      <trkpt lat="48.62581" lon="2.09069">
        <ele>122.5</ele>
        <time>2025-01-21T09:41:57Z</time>
      </trkpt>
      <trkpt lat="48.62573" lon="2.0906">
        <ele>122.9</ele>
        <time>2025-01-21T09:42:04Z</time>
      </trkpt>
      <trkpt lat="48.62566" lon="2.0905">
        <ele>123.1</ele>
        <time>2025-01-21T09:42:10Z</time>
      </trkpt>
      <trkpt lat="48.62559" lon="2.0904">
        <ele>123.5</ele>
        <time>2025-01-21T09:42:17Z</time>
      </trkpt>
      <trkpt lat="48.62551" lon="2.0903">
        <ele>123.9</ele>
        <time>2025-01-21T09:42:24Z</time>
      </trkpt>
      <trkpt lat="48.62544" lon="2.09021">
        <ele>124</ele>
        <time>2025-01-21T09:42:31Z</time>
      </trkpt>
      <trkpt lat="48.62537" lon="2.09012">
        <ele>124</ele>
        <time>2025-01-21T09:42:37Z</time>
      </trkpt>
      <trkpt lat="48.6253" lon="2.09001">
        <ele>124</ele>
        <time>2025-01-21T09:42:44Z</time>
      </trkpt>
      <trkpt lat="48.62522" lon="2.0899">
        <ele>124.4</ele>
        <time>2025-01-21T09:42:51Z</time>
      </trkpt>
      <trkpt lat="48.62516" lon="2.08979">
        <ele>124.8</ele>
        <time>2025-01-21T09:42:58Z</time>
      </trkpt>
      <trkpt lat="48.62509" lon="2.08968">
        <ele>125</ele>
        <time>2025-01-21T09:43:05Z</time>
      </trkpt>
      <trkpt lat="48.62504" lon="2.08957">
        <ele>125</ele>
        <time>2025-01-21T09:43:11Z</time>
      </trkpt>
      <trkpt lat="48.62497" lon="2.08946">
        <ele>125</ele>
        <time>2025-01-21T09:43:18Z</time>
      </trkpt>
      <trkpt lat="48.6249" lon="2.08935">
        <ele>125.3</ele>
        <time>2025-01-21T09:43:25Z</time>
      </trkpt>
      <trkpt lat="48.62484" lon="2.08924">
        <ele>125.7</ele>
        <time>2025-01-21T09:43:32Z</time>
      </trkpt>
      <trkpt lat="48.62477" lon="2.08913">
        <ele>126.1</ele>
        <time>2025-01-21T09:43:39Z</time>
      </trkpt>
      <trkpt lat="48.6247" lon="2.08901">
        <ele>126.6</ele>
        <time>2025-01-21T09:43:46Z</time>
      </trkpt>
      <trkpt lat="48.62464" lon="2.0889">
        <ele>127</ele>
        <time>2025-01-21T09:43:53Z</time>
      </trkpt>
      <trkpt lat="48.62458" lon="2.0888">
        <ele>127.2</ele>
        <time>2025-01-21T09:43:59Z</time>
      </trkpt>
      <trkpt lat="48.62451" lon="2.08868">
        <ele>127.6</ele>
        <time>2025-01-21T09:44:06Z</time>
      </trkpt>
      <trkpt lat="48.62444" lon="2.08857">
        <ele>128</ele>
        <time>2025-01-21T09:44:13Z</time>
      </trkpt>
      <trkpt lat="48.62438" lon="2.08845">
        <ele>128.1</ele>
        <time>2025-01-21T09:44:20Z</time>
      </trkpt>
      <trkpt lat="48.62431" lon="2.08833">
        <ele>128.5</ele>
        <time>2025-01-21T09:44:27Z</time>
      </trkpt>
      <trkpt lat="48.62424" lon="2.08822">
        <ele>128.8</ele>
        <time>2025-01-21T09:44:34Z</time>
      </trkpt>
      <trkpt lat="48.62418" lon="2.0881">
        <ele>129</ele>
        <time>2025-01-21T09:44:41Z</time>
      </trkpt>
      <trkpt lat="48.62411" lon="2.08799">
        <ele>129.2</ele>
        <time>2025-01-21T09:44:48Z</time>
      </trkpt>
      <trkpt lat="48.62404" lon="2.08787">
        <ele>129.7</ele>
        <time>2025-01-21T09:44:55Z</time>
      </trkpt>
      <trkpt lat="48.62397" lon="2.08776">
        <ele>130.1</ele>
        <time>2025-01-21T09:45:02Z</time>
      </trkpt>
      <trkpt lat="48.62391" lon="2.08765">
        <ele>130.5</ele>
        <time>2025-01-21T09:45:09Z</time>
      </trkpt>
      <trkpt lat="48.62385" lon="2.08755">
        <ele>130.8</ele>
        <time>2025-01-21T09:45:15Z</time>
      </trkpt>
      <trkpt lat="48.62379" lon="2.08744">
        <ele>131.2</ele>
        <time>2025-01-21T09:45:21Z</time>
      </trkpt>
      <trkpt lat="48.62372" lon="2.08733">
        <ele>131.6</ele>
        <time>2025-01-21T09:45:28Z</time>
      </trkpt>
      <trkpt lat="48.62365" lon="2.08721">
        <ele>132</ele>
        <time>2025-01-21T09:45:35Z</time>
      </trkpt>
      <trkpt lat="48.62358" lon="2.08709">
        <ele>131.9</ele>
        <time>2025-01-21T09:45:42Z</time>
      </trkpt>
      <trkpt lat="48.62352" lon="2.08699">
        <ele>131.9</ele>
        <time>2025-01-21T09:45:48Z</time>
      </trkpt>
      <trkpt lat="48.62346" lon="2.08688">
        <ele>132.3</ele>
        <time>2025-01-21T09:45:55Z</time>
      </trkpt>
      <trkpt lat="48.62339" lon="2.08677">
        <ele>132.8</ele>
        <time>2025-01-21T09:46:02Z</time>
      </trkpt>
      <trkpt lat="48.62333" lon="2.08666">
        <ele>133</ele>
        <time>2025-01-21T09:46:09Z</time>
      </trkpt>
      <trkpt lat="48.62335" lon="2.08651">
        <ele>133.6</ele>
        <time>2025-01-21T09:46:18Z</time>
      </trkpt>
      <trkpt lat="48.62339" lon="2.08638">
        <ele>134.3</ele>
        <time>2025-01-21T09:46:25Z</time>
      </trkpt>
      <trkpt lat="48.62343" lon="2.08624">
        <ele>135.2</ele>
        <time>2025-01-21T09:46:32Z</time>
      </trkpt>
      <trkpt lat="48.62347" lon="2.08611">
        <ele>136</ele>
        <time>2025-01-21T09:46:39Z</time>
      </trkpt>
      <trkpt lat="48.62351" lon="2.08597">
        <ele>136.5</ele>
        <time>2025-01-21T09:46:47Z</time>
      </trkpt>
      <trkpt lat="48.62354" lon="2.08584">
        <ele>137</ele>
        <time>2025-01-21T09:46:54Z</time>
      </trkpt>
      <trkpt lat="48.62358" lon="2.08572">
        <ele>137.8</ele>
        <time>2025-01-21T09:47:01Z</time>
      </trkpt>
      <trkpt lat="48.62362" lon="2.08559">
        <ele>138.7</ele>
        <time>2025-01-21T09:47:08Z</time>
      </trkpt>
      <trkpt lat="48.62366" lon="2.08546">
        <ele>139.1</ele>
        <time>2025-01-21T09:47:15Z</time>
      </trkpt>
      <trkpt lat="48.62371" lon="2.08533">
        <ele>139.3</ele>
        <time>2025-01-21T09:47:22Z</time>
      </trkpt>
      <trkpt lat="48.62374" lon="2.08521">
        <ele>139.7</ele>
        <time>2025-01-21T09:47:29Z</time>
      </trkpt>
      <trkpt lat="48.62378" lon="2.08507">
        <ele>140.3</ele>
        <time>2025-01-21T09:47:36Z</time>
      </trkpt>
      <trkpt lat="48.62383" lon="2.08494">
        <ele>141</ele>
        <time>2025-01-21T09:47:43Z</time>
      </trkpt>
      <trkpt lat="48.62387" lon="2.08482">
        <ele>141.6</ele>
        <time>2025-01-21T09:47:50Z</time>
      </trkpt>
      <trkpt lat="48.6239" lon="2.08469">
        <ele>142.2</ele>
        <time>2025-01-21T09:47:57Z</time>
      </trkpt>
      <trkpt lat="48.62393" lon="2.08455">
        <ele>142.8</ele>
        <time>2025-01-21T09:48:04Z</time>
      </trkpt>
      <trkpt lat="48.62397" lon="2.08442">
        <ele>143.4</ele>
        <time>2025-01-21T09:48:11Z</time>
      </trkpt>
      <trkpt lat="48.62401" lon="2.08429">
        <ele>144</ele>
        <time>2025-01-21T09:48:18Z</time>
      </trkpt>
      <trkpt lat="48.62405" lon="2.08415">
        <ele>144.6</ele>
        <time>2025-01-21T09:48:25Z</time>
      </trkpt>
      <trkpt lat="48.62408" lon="2.08401">
        <ele>145.3</ele>
        <time>2025-01-21T09:48:32Z</time>
      </trkpt>
      <trkpt lat="48.62412" lon="2.08387">
        <ele>145.8</ele>
        <time>2025-01-21T09:48:39Z</time>
      </trkpt>
      <trkpt lat="48.62415" lon="2.08374">
        <ele>146</ele>
        <time>2025-01-21T09:48:45Z</time>
      </trkpt>
      <trkpt lat="48.6242" lon="2.0836">
        <ele>146.1</ele>
        <time>2025-01-21T09:48:52Z</time>
      </trkpt>
      <trkpt lat="48.62425" lon="2.08346">
        <ele>146.3</ele>
        <time>2025-01-21T09:48:59Z</time>
      </trkpt>
      <trkpt lat="48.62429" lon="2.08333">
        <ele>146.4</ele>
        <time>2025-01-21T09:49:06Z</time>
      </trkpt>
      <trkpt lat="48.62431" lon="2.0832">
        <ele>146.5</ele>
        <time>2025-01-21T09:49:13Z</time>
      </trkpt>
      <trkpt lat="48.62432" lon="2.08305">
        <ele>146.6</ele>
        <time>2025-01-21T09:49:21Z</time>
      </trkpt>
      <trkpt lat="48.62433" lon="2.08291">
        <ele>146.8</ele>
        <time>2025-01-21T09:49:27Z</time>
      </trkpt>
      <trkpt lat="48.62434" lon="2.08276">
        <ele>147</ele>
        <time>2025-01-21T09:49:33Z</time>
      </trkpt>
      <trkpt lat="48.62435" lon="2.08262">
        <ele>147.4</ele>
        <time>2025-01-21T09:49:39Z</time>
      </trkpt>
      <trkpt lat="48.62436" lon="2.08248">
        <ele>147.7</ele>
        <time>2025-01-21T09:49:45Z</time>
      </trkpt>
      <trkpt lat="48.62436" lon="2.08235">
        <ele>147.7</ele>
        <time>2025-01-21T09:49:51Z</time>
      </trkpt>
      <trkpt lat="48.62437" lon="2.08221">
        <ele>147.7</ele>
        <time>2025-01-21T09:49:57Z</time>
      </trkpt>
      <trkpt lat="48.62438" lon="2.08206">
        <ele>147.8</ele>
        <time>2025-01-21T09:50:04Z</time>
      </trkpt>
      <trkpt lat="48.62439" lon="2.08191">
        <ele>147.7</ele>
        <time>2025-01-21T09:50:11Z</time>
      </trkpt>
      <trkpt lat="48.62439" lon="2.08178">
        <ele>147.2</ele>
        <time>2025-01-21T09:50:18Z</time>
      </trkpt>
      <trkpt lat="48.62439" lon="2.08163">
        <ele>146.7</ele>
        <time>2025-01-21T09:50:25Z</time>
      </trkpt>
      <trkpt lat="48.62438" lon="2.08148">
        <ele>146.3</ele>
        <time>2025-01-21T09:50:32Z</time>
      </trkpt>
      <trkpt lat="48.62441" lon="2.08134">
        <ele>146</ele>
        <time>2025-01-21T09:50:41Z</time>
      </trkpt>
      <trkpt lat="48.62441" lon="2.0812">
        <ele>145.9</ele>
        <time>2025-01-21T09:50:49Z</time>
      </trkpt>
      <trkpt lat="48.62441" lon="2.08104">
        <ele>145.9</ele>
        <time>2025-01-21T09:50:57Z</time>
      </trkpt>
      <trkpt lat="48.62442" lon="2.08089">
        <ele>145.9</ele>
        <time>2025-01-21T09:51:05Z</time>
      </trkpt>
      <trkpt lat="48.62444" lon="2.08075">
        <ele>146</ele>
        <time>2025-01-21T09:51:12Z</time>
      </trkpt>
      <trkpt lat="48.62446" lon="2.08061">
        <ele>146</ele>
        <time>2025-01-21T09:51:20Z</time>
      </trkpt>
      <trkpt lat="48.62447" lon="2.08046">
        <ele>145.9</ele>
        <time>2025-01-21T09:51:28Z</time>
      </trkpt>
      <trkpt lat="48.62447" lon="2.08031">
        <ele>145.9</ele>
        <time>2025-01-21T09:51:37Z</time>
      </trkpt>
      <trkpt lat="48.62448" lon="2.08017">
        <ele>145.9</ele>
        <time>2025-01-21T09:51:44Z</time>
      </trkpt>
      <trkpt lat="48.6245" lon="2.08002">
        <ele>145.8</ele>
        <time>2025-01-21T09:51:51Z</time>
      </trkpt>
      <trkpt lat="48.62452" lon="2.07989">
        <ele>146.1</ele>
        <time>2025-01-21T09:51:58Z</time>
      </trkpt>
      <trkpt lat="48.62454" lon="2.07974">
        <ele>146.6</ele>
        <time>2025-01-21T09:52:05Z</time>
      </trkpt>
      <trkpt lat="48.62455" lon="2.0796">
        <ele>146.6</ele>
        <time>2025-01-21T09:52:13Z</time>
      </trkpt>
      <trkpt lat="48.62456" lon="2.07945">
        <ele>146.6</ele>
        <time>2025-01-21T09:52:21Z</time>
      </trkpt>
      <trkpt lat="48.62457" lon="2.0793">
        <ele>146.8</ele>
        <time>2025-01-21T09:52:29Z</time>
      </trkpt>
      <trkpt lat="48.62458" lon="2.07915">
        <ele>147</ele>
        <time>2025-01-21T09:52:36Z</time>
      </trkpt>
      <trkpt lat="48.62459" lon="2.07901">
        <ele>147</ele>
        <time>2025-01-21T09:52:43Z</time>
      </trkpt>
      <trkpt lat="48.62459" lon="2.07886">
        <ele>147.1</ele>
        <time>2025-01-21T09:52:50Z</time>
      </trkpt>
      <trkpt lat="48.62459" lon="2.07872">
        <ele>147.6</ele>
        <time>2025-01-21T09:52:57Z</time>
      </trkpt>
      <trkpt lat="48.62459" lon="2.07857">
        <ele>148</ele>
        <time>2025-01-21T09:53:04Z</time>
      </trkpt>
      <trkpt lat="48.62459" lon="2.07843">
        <ele>148</ele>
        <time>2025-01-21T09:53:11Z</time>
      </trkpt>
      <trkpt lat="48.62458" lon="2.07829">
        <ele>148.2</ele>
        <time>2025-01-21T09:53:18Z</time>
      </trkpt>
      <trkpt lat="48.62458" lon="2.07815">
        <ele>148.7</ele>
        <time>2025-01-21T09:53:24Z</time>
      </trkpt>
      <trkpt lat="48.62458" lon="2.07801">
        <ele>149.2</ele>
        <time>2025-01-21T09:53:31Z</time>
      </trkpt>
      <trkpt lat="48.62457" lon="2.07787">
        <ele>149.7</ele>
        <time>2025-01-21T09:53:38Z</time>
      </trkpt>
      <trkpt lat="48.62457" lon="2.07772">
        <ele>150.2</ele>
        <time>2025-01-21T09:53:46Z</time>
      </trkpt>
      <trkpt lat="48.62456" lon="2.07758">
        <ele>150.7</ele>
        <time>2025-01-21T09:53:53Z</time>
      </trkpt>
      <trkpt lat="48.62455" lon="2.07744">
        <ele>151.2</ele>
        <time>2025-01-21T09:54:00Z</time>
      </trkpt>
      <trkpt lat="48.62455" lon="2.07729">
        <ele>151.7</ele>
        <time>2025-01-21T09:54:07Z</time>
      </trkpt>
      <trkpt lat="48.62454" lon="2.07715">
        <ele>152.3</ele>
        <time>2025-01-21T09:54:14Z</time>
      </trkpt>
      <trkpt lat="48.62453" lon="2.07702">
        <ele>153</ele>
        <time>2025-01-21T09:54:21Z</time>
      </trkpt>
      <trkpt lat="48.62452" lon="2.07688">
        <ele>153.5</ele>
        <time>2025-01-21T09:54:28Z</time>
      </trkpt>
      <trkpt lat="48.62451" lon="2.07673">
        <ele>154</ele>
        <time>2025-01-21T09:54:36Z</time>
      </trkpt>
      <trkpt lat="48.6245" lon="2.07657">
        <ele>154.8</ele>
        <time>2025-01-21T09:54:44Z</time>
      </trkpt>
      <trkpt lat="48.62451" lon="2.07643">
        <ele>155.7</ele>
        <time>2025-01-21T09:54:51Z</time>
      </trkpt>
      <trkpt lat="48.62451" lon="2.0763">
        <ele>156.7</ele>
        <time>2025-01-21T09:54:58Z</time>
      </trkpt>
      <trkpt lat="48.62453" lon="2.07616">
        <ele>157.6</ele>
        <time>2025-01-21T09:55:05Z</time>
      </trkpt>
      <trkpt lat="48.62454" lon="2.07601">
        <ele>158.6</ele>
        <time>2025-01-21T09:55:13Z</time>
      </trkpt>
      <trkpt lat="48.62457" lon="2.07586">
        <ele>159.4</ele>
        <time>2025-01-21T09:55:21Z</time>
      </trkpt>
      <trkpt lat="48.62459" lon="2.07572">
        <ele>160.1</ele>
        <time>2025-01-21T09:55:29Z</time>
      </trkpt>
      <trkpt lat="48.62461" lon="2.07558">
        <ele>160.9</ele>
        <time>2025-01-21T09:55:36Z</time>
      </trkpt>
      <trkpt lat="48.62463" lon="2.07545">
        <ele>161.4</ele>
        <time>2025-01-21T09:55:45Z</time>
      </trkpt>
      <trkpt lat="48.62465" lon="2.07531">
        <ele>161.9</ele>
        <time>2025-01-21T09:55:53Z</time>
      </trkpt>
      <trkpt lat="48.62468" lon="2.07517">
        <ele>162.4</ele>
        <time>2025-01-21T09:55:59Z</time>
      </trkpt>
      <trkpt lat="48.62471" lon="2.07503">
        <ele>162.9</ele>
        <time>2025-01-21T09:56:06Z</time>
      </trkpt>
      <trkpt lat="48.6248" lon="2.07499">
        <ele>162.8</ele>
        <time>2025-01-21T09:56:21Z</time>
      </trkpt>
      <trkpt lat="48.62488" lon="2.07492">
        <ele>162.7</ele>
        <time>2025-01-21T09:57:51Z</time>
      </trkpt>
      <trkpt lat="48.62497" lon="2.07493">
        <ele>162.3</ele>
        <time>2025-01-21T09:58:19Z</time>
      </trkpt>
      <trkpt lat="48.62507" lon="2.07494">
        <ele>162</ele>
        <time>2025-01-21T09:58:26Z</time>
      </trkpt>
      <trkpt lat="48.62516" lon="2.07498">
        <ele>161.5</ele>
        <time>2025-01-21T09:58:33Z</time>
      </trkpt>
      <trkpt lat="48.62526" lon="2.075">
        <ele>161.1</ele>
        <time>2025-01-21T09:58:41Z</time>
      </trkpt>
      <trkpt lat="48.62535" lon="2.07498">
        <ele>160.8</ele>
        <time>2025-01-21T09:58:48Z</time>
      </trkpt>
      <trkpt lat="48.62544" lon="2.07493">
        <ele>160.7</ele>
        <time>2025-01-21T09:58:55Z</time>
      </trkpt>
      <trkpt lat="48.62552" lon="2.07487">
        <ele>160.6</ele>
        <time>2025-01-21T09:59:02Z</time>
      </trkpt>
      <trkpt lat="48.6256" lon="2.07478">
        <ele>160.8</ele>
        <time>2025-01-21T09:59:10Z</time>
      </trkpt>
      <trkpt lat="48.62565" lon="2.07467">
        <ele>161.2</ele>
        <time>2025-01-21T09:59:17Z</time>
      </trkpt>
      <trkpt lat="48.62567" lon="2.07452">
        <ele>161.7</ele>
        <time>2025-01-21T09:59:25Z</time>
      </trkpt>
      <trkpt lat="48.6257" lon="2.07438">
        <ele>162.2</ele>
        <time>2025-01-21T09:59:32Z</time>
      </trkpt>
      <trkpt lat="48.62573" lon="2.07423">
        <ele>162.8</ele>
        <time>2025-01-21T09:59:40Z</time>
      </trkpt>
      <trkpt lat="48.62576" lon="2.07409">
        <ele>163.1</ele>
        <time>2025-01-21T09:59:47Z</time>
      </trkpt>
      <trkpt lat="48.62578" lon="2.07395">
        <ele>163.1</ele>
        <time>2025-01-21T09:59:55Z</time>
      </trkpt>
      <trkpt lat="48.62583" lon="2.07382">
        <ele>163</ele>
        <time>2025-01-21T10:00:03Z</time>
      </trkpt>
      <trkpt lat="48.62588" lon="2.07369">
        <ele>162.8</ele>
        <time>2025-01-21T10:00:11Z</time>
      </trkpt>
      <trkpt lat="48.62593" lon="2.07357">
        <ele>162.6</ele>
        <time>2025-01-21T10:00:18Z</time>
      </trkpt>
      <trkpt lat="48.62593" lon="2.07342">
        <ele>162.7</ele>
        <time>2025-01-21T10:00:27Z</time>
      </trkpt>
      <trkpt lat="48.62588" lon="2.07331">
        <ele>162.8</ele>
        <time>2025-01-21T10:00:34Z</time>
      </trkpt>
      <trkpt lat="48.62582" lon="2.07319">
        <ele>163.1</ele>
        <time>2025-01-21T10:00:41Z</time>
      </trkpt>
      <trkpt lat="48.62578" lon="2.07307">
        <ele>163.4</ele>
        <time>2025-01-21T10:00:48Z</time>
      </trkpt>
      <trkpt lat="48.62582" lon="2.07293">
        <ele>163.5</ele>
        <time>2025-01-21T10:00:55Z</time>
      </trkpt>
      <trkpt lat="48.62588" lon="2.07282">
        <ele>163.5</ele>
        <time>2025-01-21T10:01:02Z</time>
      </trkpt>
      <trkpt lat="48.62594" lon="2.07271">
        <ele>163.2</ele>
        <time>2025-01-21T10:01:09Z</time>
      </trkpt>
      <trkpt lat="48.62601" lon="2.0726">
        <ele>162.7</ele>
        <time>2025-01-21T10:01:17Z</time>
      </trkpt>
      <trkpt lat="48.62609" lon="2.07251">
        <ele>162.2</ele>
        <time>2025-01-21T10:01:24Z</time>
      </trkpt>
      <trkpt lat="48.62613" lon="2.07238">
        <ele>161.9</ele>
        <time>2025-01-21T10:01:32Z</time>
      </trkpt>
      <trkpt lat="48.62615" lon="2.07223">
        <ele>161.7</ele>
        <time>2025-01-21T10:01:39Z</time>
      </trkpt>
      <trkpt lat="48.62619" lon="2.07211">
        <ele>161.4</ele>
        <time>2025-01-21T10:01:46Z</time>
      </trkpt>
      <trkpt lat="48.62626" lon="2.07199">
        <ele>161</ele>
        <time>2025-01-21T10:01:54Z</time>
      </trkpt>
      <trkpt lat="48.62633" lon="2.07189">
        <ele>160.4</ele>
        <time>2025-01-21T10:02:02Z</time>
      </trkpt>
      <trkpt lat="48.6264" lon="2.0718">
        <ele>159.9</ele>
        <time>2025-01-21T10:02:09Z</time>
      </trkpt>
      <trkpt lat="48.62649" lon="2.07174">
        <ele>159.3</ele>
        <time>2025-01-21T10:02:16Z</time>
      </trkpt>
      <trkpt lat="48.62654" lon="2.07161">
        <ele>158.8</ele>
        <time>2025-01-21T10:02:24Z</time>
      </trkpt>
      <trkpt lat="48.62658" lon="2.07149">
        <ele>158.4</ele>
        <time>2025-01-21T10:02:33Z</time>
      </trkpt>
      <trkpt lat="48.62661" lon="2.07134">
        <ele>158.2</ele>
        <time>2025-01-21T10:02:41Z</time>
      </trkpt>
      <trkpt lat="48.62665" lon="2.07122">
        <ele>158.1</ele>
        <time>2025-01-21T10:02:48Z</time>
      </trkpt>
      <trkpt lat="48.62674" lon="2.07115">
        <ele>157.5</ele>
        <time>2025-01-21T10:02:56Z</time>
      </trkpt>
      <trkpt lat="48.62684" lon="2.0711">
        <ele>156.8</ele>
        <time>2025-01-21T10:03:03Z</time>
      </trkpt>
      <trkpt lat="48.62692" lon="2.07101">
        <ele>156.2</ele>
        <time>2025-01-21T10:03:11Z</time>
      </trkpt>
      <trkpt lat="48.62692" lon="2.07085">
        <ele>156.2</ele>
        <time>2025-01-21T10:03:18Z</time>
      </trkpt>
      <trkpt lat="48.62693" lon="2.07071">
        <ele>156.5</ele>
        <time>2025-01-21T10:03:24Z</time>
      </trkpt>
      <trkpt lat="48.62694" lon="2.07057">
        <ele>157</ele>
        <time>2025-01-21T10:03:31Z</time>
      </trkpt>
      <trkpt lat="48.62701" lon="2.07047">
        <ele>156.6</ele>
        <time>2025-01-21T10:03:38Z</time>
      </trkpt>
      <trkpt lat="48.6271" lon="2.07043">
        <ele>155.7</ele>
        <time>2025-01-21T10:03:45Z</time>
      </trkpt>
      <trkpt lat="48.6272" lon="2.07038">
        <ele>154.9</ele>
        <time>2025-01-21T10:03:52Z</time>
      </trkpt>
      <trkpt lat="48.62729" lon="2.07033">
        <ele>154.1</ele>
        <time>2025-01-21T10:03:59Z</time>
      </trkpt>
      <trkpt lat="48.62737" lon="2.07024">
        <ele>153.4</ele>
        <time>2025-01-21T10:04:06Z</time>
      </trkpt>
      <trkpt lat="48.62745" lon="2.07015">
        <ele>152.6</ele>
        <time>2025-01-21T10:04:13Z</time>
      </trkpt>
      <trkpt lat="48.62752" lon="2.07005">
        <ele>151.7</ele>
        <time>2025-01-21T10:04:20Z</time>
      </trkpt>
      <trkpt lat="48.6276" lon="2.06997">
        <ele>151</ele>
        <time>2025-01-21T10:04:27Z</time>
      </trkpt>
      <trkpt lat="48.62767" lon="2.06985">
        <ele>150.4</ele>
        <time>2025-01-21T10:04:35Z</time>
      </trkpt>
      <trkpt lat="48.62771" lon="2.06973">
        <ele>149.9</ele>
        <time>2025-01-21T10:04:43Z</time>
      </trkpt>
      <trkpt lat="48.62774" lon="2.0696">
        <ele>149.9</ele>
        <time>2025-01-21T10:04:51Z</time>
      </trkpt>
      <trkpt lat="48.62776" lon="2.06945">
        <ele>150.2</ele>
        <time>2025-01-21T10:05:00Z</time>
      </trkpt>
      <trkpt lat="48.62777" lon="2.0693">
        <ele>150.1</ele>
        <time>2025-01-21T10:05:08Z</time>
      </trkpt>
      <trkpt lat="48.62777" lon="2.06915">
        <ele>150</ele>
        <time>2025-01-21T10:05:16Z</time>
      </trkpt>
      <trkpt lat="48.62778" lon="2.06899">
        <ele>149.4</ele>
        <time>2025-01-21T10:05:24Z</time>
      </trkpt>
      <trkpt lat="48.62778" lon="2.06885">
        <ele>149</ele>
        <time>2025-01-21T10:05:31Z</time>
      </trkpt>
      <trkpt lat="48.62779" lon="2.06872">
        <ele>148.9</ele>
        <time>2025-01-21T10:05:38Z</time>
      </trkpt>
      <trkpt lat="48.62782" lon="2.06859">
        <ele>148.7</ele>
        <time>2025-01-21T10:05:45Z</time>
      </trkpt>
      <trkpt lat="48.62787" lon="2.06845">
        <ele>148.5</ele>
        <time>2025-01-21T10:05:53Z</time>
      </trkpt>
      <trkpt lat="48.62792" lon="2.06834">
        <ele>148.5</ele>
        <time>2025-01-21T10:06:00Z</time>
      </trkpt>
      <trkpt lat="48.62797" lon="2.06821">
        <ele>148.6</ele>
        <time>2025-01-21T10:06:08Z</time>
      </trkpt>
      <trkpt lat="48.62802" lon="2.06809">
        <ele>148.9</ele>
        <time>2025-01-21T10:06:16Z</time>
      </trkpt>
      <trkpt lat="48.62808" lon="2.06796">
        <ele>149.3</ele>
        <time>2025-01-21T10:06:24Z</time>
      </trkpt>
      <trkpt lat="48.6281" lon="2.06782">
        <ele>149.8</ele>
        <time>2025-01-21T10:06:33Z</time>
      </trkpt>
      <trkpt lat="48.62812" lon="2.06769">
        <ele>150.1</ele>
        <time>2025-01-21T10:06:45Z</time>
      </trkpt>
      <trkpt lat="48.6282" lon="2.06763">
        <ele>150.6</ele>
        <time>2025-01-21T10:07:23Z</time>
      </trkpt>
      <trkpt lat="48.6283" lon="2.06758">
        <ele>151.3</ele>
        <time>2025-01-21T10:07:31Z</time>
      </trkpt>
      <trkpt lat="48.62839" lon="2.06753">
        <ele>152</ele>
        <time>2025-01-21T10:07:39Z</time>
      </trkpt>
      <trkpt lat="48.62848" lon="2.06747">
        <ele>152.7</ele>
        <time>2025-01-21T10:07:46Z</time>
      </trkpt>
      <trkpt lat="48.62857" lon="2.06741">
        <ele>153.5</ele>
        <time>2025-01-21T10:07:54Z</time>
      </trkpt>
      <trkpt lat="48.62866" lon="2.06736">
        <ele>154.2</ele>
        <time>2025-01-21T10:08:01Z</time>
      </trkpt>
      <trkpt lat="48.62876" lon="2.06731">
        <ele>154.9</ele>
        <time>2025-01-21T10:08:08Z</time>
      </trkpt>
      <trkpt lat="48.62885" lon="2.06727">
        <ele>155.5</ele>
        <time>2025-01-21T10:08:15Z</time>
      </trkpt>
      <trkpt lat="48.62894" lon="2.06722">
        <ele>155.8</ele>
        <time>2025-01-21T10:08:23Z</time>
      </trkpt>
      <trkpt lat="48.62903" lon="2.06718">
        <ele>155.7</ele>
        <time>2025-01-21T10:08:31Z</time>
      </trkpt>
      <trkpt lat="48.62913" lon="2.06713">
        <ele>155.7</ele>
        <time>2025-01-21T10:08:39Z</time>
      </trkpt>
      <trkpt lat="48.62921" lon="2.06706">
        <ele>156.2</ele>
        <time>2025-01-21T10:08:47Z</time>
      </trkpt>
      <trkpt lat="48.62931" lon="2.06707">
        <ele>156.3</ele>
        <time>2025-01-21T10:08:54Z</time>
      </trkpt>
      <trkpt lat="48.62938" lon="2.06718">
        <ele>155.9</ele>
        <time>2025-01-21T10:09:01Z</time>
      </trkpt>
      <trkpt lat="48.6294" lon="2.06733">
        <ele>155.5</ele>
        <time>2025-01-21T10:09:08Z</time>
      </trkpt>
      <trkpt lat="48.62944" lon="2.06746">
        <ele>155.1</ele>
        <time>2025-01-21T10:09:49Z</time>
      </trkpt>
      <trkpt lat="48.62953" lon="2.06747">
        <ele>155.1</ele>
        <time>2025-01-21T10:09:57Z</time>
      </trkpt>
      <trkpt lat="48.62963" lon="2.06747">
        <ele>155.2</ele>
        <time>2025-01-21T10:10:06Z</time>
      </trkpt>
      <trkpt lat="48.62973" lon="2.06747">
        <ele>155.2</ele>
        <time>2025-01-21T10:10:13Z</time>
      </trkpt>
      <trkpt lat="48.62983" lon="2.06747">
        <ele>155.6</ele>
        <time>2025-01-21T10:10:20Z</time>
      </trkpt>
      <trkpt lat="48.62993" lon="2.06748">
        <ele>155.8</ele>
        <time>2025-01-21T10:10:27Z</time>
      </trkpt>
      <trkpt lat="48.63003" lon="2.06747">
        <ele>156.1</ele>
        <time>2025-01-21T10:10:34Z</time>
      </trkpt>
      <trkpt lat="48.63012" lon="2.06747">
        <ele>156.1</ele>
        <time>2025-01-21T10:10:41Z</time>
      </trkpt>
      <trkpt lat="48.63022" lon="2.06746">
        <ele>156.1</ele>
        <time>2025-01-21T10:10:48Z</time>
      </trkpt>
      <trkpt lat="48.63032" lon="2.06746">
        <ele>156.1</ele>
        <time>2025-01-21T10:10:55Z</time>
      </trkpt>
      <trkpt lat="48.63042" lon="2.06746">
        <ele>156.1</ele>
        <time>2025-01-21T10:11:02Z</time>
      </trkpt>
      <trkpt lat="48.63052" lon="2.06746">
        <ele>156</ele>
        <time>2025-01-21T10:11:10Z</time>
      </trkpt>
      <trkpt lat="48.63061" lon="2.06745">
        <ele>155.6</ele>
        <time>2025-01-21T10:11:16Z</time>
      </trkpt>
      <trkpt lat="48.6307" lon="2.0674">
        <ele>154.9</ele>
        <time>2025-01-21T10:11:23Z</time>
      </trkpt>
      <trkpt lat="48.6308" lon="2.0674">
        <ele>154.2</ele>
        <time>2025-01-21T10:11:32Z</time>
      </trkpt>
      <trkpt lat="48.63083" lon="2.06726">
        <ele>154</ele>
        <time>2025-01-21T10:11:40Z</time>
      </trkpt>
      <trkpt lat="48.63085" lon="2.06741">
        <ele>153.8</ele>
        <time>2025-01-21T10:12:44Z</time>
      </trkpt>
      <trkpt lat="48.63095" lon="2.06742">
        <ele>152.8</ele>
        <time>2025-01-21T10:12:51Z</time>
      </trkpt>
      <trkpt lat="48.63105" lon="2.0674">
        <ele>151.9</ele>
        <time>2025-01-21T10:12:58Z</time>
      </trkpt>
      <trkpt lat="48.63115" lon="2.06738">
        <ele>151.4</ele>
        <time>2025-01-21T10:13:05Z</time>
      </trkpt>
      <trkpt lat="48.63125" lon="2.06738">
        <ele>151.4</ele>
        <time>2025-01-21T10:13:12Z</time>
      </trkpt>
      <trkpt lat="48.63134" lon="2.06739">
        <ele>151.4</ele>
        <time>2025-01-21T10:13:19Z</time>
      </trkpt>
      <trkpt lat="48.63144" lon="2.0674">
        <ele>151.8</ele>
        <time>2025-01-21T10:13:26Z</time>
      </trkpt>
      <trkpt lat="48.63154" lon="2.0674">
        <ele>152.5</ele>
        <time>2025-01-21T10:13:33Z</time>
      </trkpt>
      <trkpt lat="48.63164" lon="2.06739">
        <ele>153.2</ele>
        <time>2025-01-21T10:13:40Z</time>
      </trkpt>
      <trkpt lat="48.63173" lon="2.06738">
        <ele>153.7</ele>
        <time>2025-01-21T10:13:47Z</time>
      </trkpt>
      <trkpt lat="48.63183" lon="2.06736">
        <ele>154.1</ele>
        <time>2025-01-21T10:13:54Z</time>
      </trkpt>
      <trkpt lat="48.63193" lon="2.06737">
        <ele>154.4</ele>
        <time>2025-01-21T10:14:01Z</time>
      </trkpt>
      <trkpt lat="48.63203" lon="2.06737">
        <ele>154.9</ele>
        <time>2025-01-21T10:14:08Z</time>
      </trkpt>
      <trkpt lat="48.63213" lon="2.0674">
        <ele>155.4</ele>
        <time>2025-01-21T10:14:15Z</time>
      </trkpt>
      <trkpt lat="48.63222" lon="2.06741">
        <ele>156</ele>
        <time>2025-01-21T10:14:22Z</time>
      </trkpt>
      <trkpt lat="48.63232" lon="2.06741">
        <ele>156.5</ele>
        <time>2025-01-21T10:14:29Z</time>
      </trkpt>
      <trkpt lat="48.63241" lon="2.06738">
        <ele>157</ele>
        <time>2025-01-21T10:14:36Z</time>
      </trkpt>
      <trkpt lat="48.6325" lon="2.06734">
        <ele>157.6</ele>
        <time>2025-01-21T10:14:43Z</time>
      </trkpt>
      <trkpt lat="48.6326" lon="2.06734">
        <ele>158</ele>
        <time>2025-01-21T10:14:50Z</time>
      </trkpt>
      <trkpt lat="48.6327" lon="2.06734">
        <ele>158.3</ele>
        <time>2025-01-21T10:14:57Z</time>
      </trkpt>
      <trkpt lat="48.6328" lon="2.06735">
        <ele>158.6</ele>
        <time>2025-01-21T10:15:03Z</time>
      </trkpt>
      <trkpt lat="48.63289" lon="2.06735">
        <ele>159.1</ele>
        <time>2025-01-21T10:15:10Z</time>
      </trkpt>
      <trkpt lat="48.63298" lon="2.06731">
        <ele>159.6</ele>
        <time>2025-01-21T10:15:17Z</time>
      </trkpt>
      <trkpt lat="48.63308" lon="2.0673">
        <ele>160.1</ele>
        <time>2025-01-21T10:15:24Z</time>
      </trkpt>
      <trkpt lat="48.63319" lon="2.0673">
        <ele>160.5</ele>
        <time>2025-01-21T10:15:32Z</time>
      </trkpt>
      <trkpt lat="48.63329" lon="2.0673">
        <ele>160.9</ele>
        <time>2025-01-21T10:15:39Z</time>
      </trkpt>
      <trkpt lat="48.6334" lon="2.0673">
        <ele>161.2</ele>
        <time>2025-01-21T10:15:46Z</time>
      </trkpt>
      <trkpt lat="48.63349" lon="2.06728">
        <ele>161.6</ele>
        <time>2025-01-21T10:15:53Z</time>
      </trkpt>
      <trkpt lat="48.63359" lon="2.06728">
        <ele>161.9</ele>
        <time>2025-01-21T10:16:00Z</time>
      </trkpt>
      <trkpt lat="48.63369" lon="2.06729">
        <ele>162.5</ele>
        <time>2025-01-21T10:16:07Z</time>
      </trkpt>
      <trkpt lat="48.63379" lon="2.06729">
        <ele>163.1</ele>
        <time>2025-01-21T10:16:14Z</time>
      </trkpt>
      <trkpt lat="48.63388" lon="2.06726">
        <ele>163.8</ele>
        <time>2025-01-21T10:16:21Z</time>
      </trkpt>
      <trkpt lat="48.63398" lon="2.06724">
        <ele>164.3</ele>
        <time>2025-01-21T10:16:28Z</time>
      </trkpt>
      <trkpt lat="48.63407" lon="2.06727">
        <ele>164.6</ele>
        <time>2025-01-21T10:16:35Z</time>
      </trkpt>
      <trkpt lat="48.63416" lon="2.06728">
        <ele>165</ele>
        <time>2025-01-21T10:16:42Z</time>
      </trkpt>
      <trkpt lat="48.63425" lon="2.06728">
        <ele>165.6</ele>
        <time>2025-01-21T10:16:49Z</time>
      </trkpt>
      <trkpt lat="48.63434" lon="2.06733">
        <ele>166.2</ele>
        <time>2025-01-21T10:16:56Z</time>
      </trkpt>
      <trkpt lat="48.63441" lon="2.06742">
        <ele>166.7</ele>
        <time>2025-01-21T10:17:03Z</time>
      </trkpt>
      <trkpt lat="48.63449" lon="2.06751">
        <ele>167.2</ele>
        <time>2025-01-21T10:17:10Z</time>
      </trkpt>
      <trkpt lat="48.63455" lon="2.06762">
        <ele>167.4</ele>
        <time>2025-01-21T10:17:17Z</time>
      </trkpt>
      <trkpt lat="48.63462" lon="2.06774">
        <ele>167.6</ele>
        <time>2025-01-21T10:17:24Z</time>
      </trkpt>
      <trkpt lat="48.63468" lon="2.06785">
        <ele>167.9</ele>
        <time>2025-01-21T10:17:31Z</time>
      </trkpt>
      <trkpt lat="48.63474" lon="2.06796">
        <ele>168.1</ele>
        <time>2025-01-21T10:17:38Z</time>
      </trkpt>
      <trkpt lat="48.6348" lon="2.06808">
        <ele>168.3</ele>
        <time>2025-01-21T10:17:45Z</time>
      </trkpt>
      <trkpt lat="48.63487" lon="2.06819">
        <ele>168.5</ele>
        <time>2025-01-21T10:17:52Z</time>
      </trkpt>
      <trkpt lat="48.63493" lon="2.0683">
        <ele>168.8</ele>
        <time>2025-01-21T10:17:59Z</time>
      </trkpt>
      <trkpt lat="48.63499" lon="2.06843">
        <ele>169</ele>
        <time>2025-01-21T10:18:06Z</time>
      </trkpt>
      <trkpt lat="48.63506" lon="2.06853">
        <ele>169</ele>
        <time>2025-01-21T10:18:13Z</time>
      </trkpt>
      <trkpt lat="48.63513" lon="2.06863">
        <ele>169</ele>
        <time>2025-01-21T10:18:20Z</time>
      </trkpt>
      <trkpt lat="48.63521" lon="2.06873">
        <ele>169.3</ele>
        <time>2025-01-21T10:18:27Z</time>
      </trkpt>
      <trkpt lat="48.63528" lon="2.06882">
        <ele>169.8</ele>
        <time>2025-01-21T10:18:34Z</time>
      </trkpt>
      <trkpt lat="48.63537" lon="2.06891">
        <ele>170</ele>
        <time>2025-01-21T10:18:41Z</time>
      </trkpt>
      <trkpt lat="48.63544" lon="2.069">
        <ele>170</ele>
        <time>2025-01-21T10:18:48Z</time>
      </trkpt>
      <trkpt lat="48.63551" lon="2.0691">
        <ele>170</ele>
        <time>2025-01-21T10:18:55Z</time>
      </trkpt>
      <trkpt lat="48.63559" lon="2.06919">
        <ele>170</ele>
        <time>2025-01-21T10:19:02Z</time>
      </trkpt>
      <trkpt lat="48.63567" lon="2.06927">
        <ele>170.1</ele>
        <time>2025-01-21T10:19:09Z</time>
      </trkpt>
      <trkpt lat="48.63575" lon="2.06934">
        <ele>170.4</ele>
        <time>2025-01-21T10:19:16Z</time>
      </trkpt>
      <trkpt lat="48.63584" lon="2.06941">
        <ele>170.9</ele>
        <time>2025-01-21T10:19:23Z</time>
      </trkpt>
      <trkpt lat="48.63591" lon="2.06949">
        <ele>170.9</ele>
        <time>2025-01-21T10:19:30Z</time>
      </trkpt>
      <trkpt lat="48.636" lon="2.06955">
        <ele>170.9</ele>
        <time>2025-01-21T10:19:37Z</time>
      </trkpt>
      <trkpt lat="48.63609" lon="2.06961">
        <ele>171</ele>
        <time>2025-01-21T10:19:44Z</time>
      </trkpt>
      <trkpt lat="48.63618" lon="2.06966">
        <ele>171</ele>
        <time>2025-01-21T10:19:51Z</time>
      </trkpt>
      <trkpt lat="48.63626" lon="2.06973">
        <ele>171</ele>
        <time>2025-01-21T10:19:58Z</time>
      </trkpt>
      <trkpt lat="48.63634" lon="2.06981">
        <ele>171</ele>
        <time>2025-01-21T10:20:05Z</time>
      </trkpt>
      <trkpt lat="48.63643" lon="2.06988">
        <ele>171</ele>
        <time>2025-01-21T10:20:12Z</time>
      </trkpt>
      <trkpt lat="48.63651" lon="2.06995">
        <ele>171</ele>
        <time>2025-01-21T10:20:19Z</time>
      </trkpt>
      <trkpt lat="48.6366" lon="2.07001">
        <ele>171</ele>
        <time>2025-01-21T10:20:26Z</time>
      </trkpt>
      <trkpt lat="48.63667" lon="2.07009">
        <ele>171</ele>
        <time>2025-01-21T10:20:33Z</time>
      </trkpt>
      <trkpt lat="48.63675" lon="2.07018">
        <ele>171</ele>
        <time>2025-01-21T10:20:40Z</time>
      </trkpt>
      <trkpt lat="48.63684" lon="2.07026">
        <ele>171</ele>
        <time>2025-01-21T10:20:47Z</time>
      </trkpt>
      <trkpt lat="48.63692" lon="2.07033">
        <ele>171</ele>
        <time>2025-01-21T10:20:54Z</time>
      </trkpt>
      <trkpt lat="48.63701" lon="2.0704">
        <ele>171</ele>
        <time>2025-01-21T10:21:01Z</time>
      </trkpt>
      <trkpt lat="48.6371" lon="2.07047">
        <ele>171</ele>
        <time>2025-01-21T10:21:08Z</time>
      </trkpt>
      <trkpt lat="48.63718" lon="2.07055">
        <ele>171</ele>
        <time>2025-01-21T10:21:16Z</time>
      </trkpt>
      <trkpt lat="48.63727" lon="2.07062">
        <ele>171</ele>
        <time>2025-01-21T10:21:24Z</time>
      </trkpt>
      <trkpt lat="48.63735" lon="2.07068">
        <ele>171.2</ele>
        <time>2025-01-21T10:21:32Z</time>
      </trkpt>
      <trkpt lat="48.63743" lon="2.07075">
        <ele>171.5</ele>
        <time>2025-01-21T10:21:41Z</time>
      </trkpt>
      <trkpt lat="48.63752" lon="2.07082">
        <ele>172</ele>
        <time>2025-01-21T10:21:51Z</time>
      </trkpt>
      <trkpt lat="48.63759" lon="2.0709">
        <ele>171.8</ele>
        <time>2025-01-21T10:33:00Z</time>
      </trkpt>
      <trkpt lat="48.63768" lon="2.07096">
        <ele>171.8</ele>
        <time>2025-01-21T10:33:09Z</time>
      </trkpt>
      <trkpt lat="48.63776" lon="2.07104">
        <ele>172</ele>
        <time>2025-01-21T10:33:17Z</time>
      </trkpt>
      <trkpt lat="48.63785" lon="2.07111">
        <ele>172</ele>
        <time>2025-01-21T10:33:25Z</time>
      </trkpt>
      <trkpt lat="48.63792" lon="2.07118">
        <ele>171.8</ele>
        <time>2025-01-21T10:33:33Z</time>
      </trkpt>
      <trkpt lat="48.638" lon="2.07125">
        <ele>171.5</ele>
        <time>2025-01-21T10:33:40Z</time>
      </trkpt>
      <trkpt lat="48.63809" lon="2.07132">
        <ele>171.3</ele>
        <time>2025-01-21T10:33:48Z</time>
      </trkpt>
      <trkpt lat="48.63817" lon="2.07139">
        <ele>171.4</ele>
        <time>2025-01-21T10:33:56Z</time>
      </trkpt>
      <trkpt lat="48.63826" lon="2.07147">
        <ele>171.7</ele>
        <time>2025-01-21T10:34:04Z</time>
      </trkpt>
      <trkpt lat="48.63831" lon="2.07159">
        <ele>171.9</ele>
        <time>2025-01-21T10:34:20Z</time>
      </trkpt>
      <trkpt lat="48.6384" lon="2.07163">
        <ele>171.8</ele>
        <time>2025-01-21T10:34:28Z</time>
      </trkpt>
      <trkpt lat="48.63848" lon="2.07169">
        <ele>171.4</ele>
        <time>2025-01-21T10:34:35Z</time>
      </trkpt>
      <trkpt lat="48.63857" lon="2.07176">
        <ele>171.1</ele>
        <time>2025-01-21T10:34:42Z</time>
      </trkpt>
      <trkpt lat="48.63865" lon="2.07182">
        <ele>171</ele>
        <time>2025-01-21T10:34:49Z</time>
      </trkpt>
      <trkpt lat="48.63874" lon="2.07189">
        <ele>171</ele>
        <time>2025-01-21T10:34:57Z</time>
      </trkpt>
      <trkpt lat="48.63882" lon="2.07196">
        <ele>171</ele>
        <time>2025-01-21T10:35:05Z</time>
      </trkpt>
      <trkpt lat="48.63892" lon="2.07201">
        <ele>171</ele>
        <time>2025-01-21T10:35:13Z</time>
      </trkpt>
      <trkpt lat="48.63901" lon="2.07206">
        <ele>171</ele>
        <time>2025-01-21T10:35:20Z</time>
      </trkpt>
      <trkpt lat="48.6391" lon="2.07214">
        <ele>171</ele>
        <time>2025-01-21T10:35:27Z</time>
      </trkpt>
      <trkpt lat="48.63918" lon="2.0722">
        <ele>171</ele>
        <time>2025-01-21T10:35:34Z</time>
      </trkpt>
      <trkpt lat="48.63926" lon="2.07227">
        <ele>170.6</ele>
        <time>2025-01-21T10:35:41Z</time>
      </trkpt>
      <trkpt lat="48.63935" lon="2.07233">
        <ele>170.3</ele>
        <time>2025-01-21T10:35:48Z</time>
      </trkpt>
      <trkpt lat="48.63944" lon="2.0724">
        <ele>170</ele>
        <time>2025-01-21T10:35:56Z</time>
      </trkpt>
      <trkpt lat="48.63952" lon="2.07247">
        <ele>170</ele>
        <time>2025-01-21T10:36:03Z</time>
      </trkpt>
      <trkpt lat="48.63961" lon="2.07254">
        <ele>169.9</ele>
        <time>2025-01-21T10:36:10Z</time>
      </trkpt>
      <trkpt lat="48.63969" lon="2.07261">
        <ele>169.6</ele>
        <time>2025-01-21T10:36:17Z</time>
      </trkpt>
      <trkpt lat="48.63977" lon="2.07269">
        <ele>169.3</ele>
        <time>2025-01-21T10:36:24Z</time>
      </trkpt>
      <trkpt lat="48.63986" lon="2.07274">
        <ele>169.1</ele>
        <time>2025-01-21T10:36:31Z</time>
      </trkpt>
      <trkpt lat="48.63994" lon="2.07281">
        <ele>168.9</ele>
        <time>2025-01-21T10:36:38Z</time>
      </trkpt>
      <trkpt lat="48.64003" lon="2.07287">
        <ele>168.6</ele>
        <time>2025-01-21T10:36:45Z</time>
      </trkpt>
      <trkpt lat="48.64013" lon="2.07292">
        <ele>168.3</ele>
        <time>2025-01-21T10:36:52Z</time>
      </trkpt>
      <trkpt lat="48.64021" lon="2.07298">
        <ele>168.1</ele>
        <time>2025-01-21T10:36:59Z</time>
      </trkpt>
      <trkpt lat="48.6403" lon="2.07302">
        <ele>167.9</ele>
        <time>2025-01-21T10:37:07Z</time>
      </trkpt>
      <trkpt lat="48.6404" lon="2.07299">
        <ele>167.6</ele>
        <time>2025-01-21T10:37:14Z</time>
      </trkpt>
      <trkpt lat="48.64046" lon="2.07287">
        <ele>167.3</ele>
        <time>2025-01-21T10:37:22Z</time>
      </trkpt>
      <trkpt lat="48.64049" lon="2.07274">
        <ele>167.3</ele>
        <time>2025-01-21T10:37:29Z</time>
      </trkpt>
      <trkpt lat="48.64053" lon="2.07261">
        <ele>167.6</ele>
        <time>2025-01-21T10:37:36Z</time>
      </trkpt>
      <trkpt lat="48.64057" lon="2.07249">
        <ele>168</ele>
        <time>2025-01-21T10:37:43Z</time>
      </trkpt>
      <trkpt lat="48.6406" lon="2.07236">
        <ele>167.9</ele>
        <time>2025-01-21T10:37:50Z</time>
      </trkpt>
      <trkpt lat="48.64065" lon="2.07223">
        <ele>168</ele>
        <time>2025-01-21T10:37:57Z</time>
      </trkpt>
      <trkpt lat="48.64069" lon="2.0721">
        <ele>167.8</ele>
        <time>2025-01-21T10:38:04Z</time>
      </trkpt>
      <trkpt lat="48.64074" lon="2.07197">
        <ele>167.4</ele>
        <time>2025-01-21T10:38:12Z</time>
      </trkpt>
      <trkpt lat="48.64079" lon="2.07184">
        <ele>167.2</ele>
        <time>2025-01-21T10:38:20Z</time>
      </trkpt>
      <trkpt lat="48.64083" lon="2.07171">
        <ele>167</ele>
        <time>2025-01-21T10:38:27Z</time>
      </trkpt>
      <trkpt lat="48.64087" lon="2.07158">
        <ele>167.3</ele>
        <time>2025-01-21T10:38:34Z</time>
      </trkpt>
      <trkpt lat="48.64091" lon="2.07145">
        <ele>167.6</ele>
        <time>2025-01-21T10:38:41Z</time>
      </trkpt>
      <trkpt lat="48.64096" lon="2.07131">
        <ele>167.5</ele>
        <time>2025-01-21T10:38:48Z</time>
      </trkpt>
      <trkpt lat="48.64101" lon="2.07119">
        <ele>167.4</ele>
        <time>2025-01-21T10:38:55Z</time>
      </trkpt>
      <trkpt lat="48.64104" lon="2.07106">
        <ele>167.3</ele>
        <time>2025-01-21T10:39:02Z</time>
      </trkpt>
      <trkpt lat="48.64108" lon="2.07093">
        <ele>167.1</ele>
        <time>2025-01-21T10:39:09Z</time>
      </trkpt>
      <trkpt lat="48.64113" lon="2.07081">
        <ele>167.1</ele>
        <time>2025-01-21T10:39:16Z</time>
      </trkpt>
      <trkpt lat="48.64118" lon="2.07068">
        <ele>167.4</ele>
        <time>2025-01-21T10:39:24Z</time>
      </trkpt>
      <trkpt lat="48.64122" lon="2.07054">
        <ele>167.6</ele>
        <time>2025-01-21T10:39:32Z</time>
      </trkpt>
      <trkpt lat="48.64126" lon="2.07041">
        <ele>167.5</ele>
        <time>2025-01-21T10:39:39Z</time>
      </trkpt>
      <trkpt lat="48.64135" lon="2.07038">
        <ele>167.1</ele>
        <time>2025-01-21T10:39:46Z</time>
      </trkpt>
      <trkpt lat="48.64144" lon="2.07044">
        <ele>166.8</ele>
        <time>2025-01-21T10:39:53Z</time>
      </trkpt>
      <trkpt lat="48.64152" lon="2.0705">
        <ele>166.5</ele>
        <time>2025-01-21T10:40:00Z</time>
      </trkpt>
      <trkpt lat="48.64161" lon="2.07057">
        <ele>166.2</ele>
        <time>2025-01-21T10:40:08Z</time>
      </trkpt>
      <trkpt lat="48.6416" lon="2.0707">
        <ele>166.2</ele>
        <time>2025-01-21T10:40:15Z</time>
      </trkpt>
      <trkpt lat="48.64167" lon="2.07082">
        <ele>166</ele>
        <time>2025-01-21T10:40:23Z</time>
      </trkpt>
      <trkpt lat="48.64175" lon="2.0709">
        <ele>165.9</ele>
        <time>2025-01-21T10:40:54Z</time>
      </trkpt>
    </trkseg>
  </trk>
</gpx>